Time,TemperatureF,DewpointF,PressureIn,WindDirection,WindDirectionDegrees,WindSpeedMPH,WindSpeedGustMPH,Humidity,HourlyPrecipIn,Conditions,Clouds,dailyrainin,SoftwareType,DateUTC
2013-08-06 00:00:00,46.8,42.8,30.03,NNE,22,0.0,0.0,86,0.00,,,0.00,WUHU21623XXSP,2013-08-06 04:00:00,
2013-08-06 00:03:00,46.6,42.6,30.03,NNE,22,0.0,0.0,86,0.00,,,0.00,WUHU21623XXSP,2013-08-06 04:03:00,
2013-08-06 00:05:00,46.6,42.6,30.03,NNE,22,0.0,0.0,86,0.00,,,0.00,WUHU21623XXSP,2013-08-06 04:05:00,
2013-08-06 00:06:00,48.0,43.7,30.03,NNE,22,0.0,0.0,85,0.00,,,0.00,WUHU21623XXSP,2013-08-06 04:06:00,
2013-08-06 00:07:00,46.6,42.6,30.03,NNE,22,0.0,0.0,86,0.00,,,0.00,WUHU21623XXSP,2013-08-06 04:07:00,
2013-08-06 00:09:00,46.8,42.8,30.03,NNE,22,0.0,0.0,86,0.00,,,0.00,WUHU21623XXSP,2013-08-06 04:09:00,
2013-08-06 00:11:00,47.8,43.5,30.03,NNE,22,0.0,0.0,85,0.00,,,0.00,WUHU21623XXSP,2013-08-06 04:11:00,
2013-08-06 00:13:00,47.1,43.2,30.03,NNE,22,0.0,0.0,86,0.00,,,0.00,WUHU21623XXSP,2013-08-06 04:13:00,
2013-08-06 00:15:00,46.8,42.8,30.03,NNE,22,0.0,0.0,86,0.00,,,0.00,WUHU21623XXSP,2013-08-06 04:15:00,
2013-08-06 00:16:00,47.1,42.9,30.03,NNE,22,0.0,0.0,85,0.00,,,0.00,WUHU21623XXSP,2013-08-06 04:16:00,
2013-08-06 00:17:00,46.6,42.6,30.03,NNE,22,0.0,0.0,86,0.00,,,0.00,WUHU21623XXSP,2013-08-06 04:17:00,
2013-08-06 00:20:00,46.6,42.6,30.03,NNE,22,0.0,0.0,86,0.00,,,0.00,WUHU21623XXSP,2013-08-06 04:20:00,
2013-08-06 00:22:00,47.1,42.9,30.03,NNE,22,0.0,0.0,85,0.00,,,0.00,WUHU21623XXSP,2013-08-06 04:22:00,
2013-08-06 00:24:00,46.4,42.5,30.03,NNE,22,0.0,0.0,86,0.00,,,0.00,WUHU21623XXSP,2013-08-06 04:24:00,
2013-08-06 00:26:00,46.2,42.3,30.03,NNE,22,0.0,0.0,86,0.00,,,0.00,WUHU21623XXSP,2013-08-06 04:26:00,
2013-08-06 00:27:00,47.3,43.0,30.03,NNE,22,0.0,0.0,85,0.00,,,0.00,WUHU21623XXSP,2013-08-06 04:27:00,
2013-08-06 00:28:00,46.4,42.5,30.03,NNE,22,0.0,0.0,86,0.00,,,0.00,WUHU21623XXSP,2013-08-06 04:28:00,
2013-08-06 00:30:00,46.2,42.3,30.03,NNE,22,0.0,0.0,86,0.00,,,0.00,WUHU21623XXSP,2013-08-06 04:30:00,
2013-08-06 00:33:00,46.8,42.8,30.03,NNE,22,0.0,0.0,86,0.00,,,0.00,WUHU21623XXSP,2013-08-06 04:33:00,
2013-08-06 00:35:00,47.1,43.2,30.03,NNE,22,0.0,0.0,86,0.00,,,0.00,WUHU21623XXSP,2013-08-06 04:35:00,
2013-08-06 00:37:00,47.1,42.9,30.03,NNE,22,0.0,0.0,85,0.00,,,0.00,WUHU21623XXSP,2013-08-06 04:37:00,
2013-08-06 00:39:00,46.9,43.0,30.03,NNE,22,0.0,0.0,86,0.00,,,0.00,WUHU21623XXSP,2013-08-06 04:39:00,
2013-08-06 00:41:00,46.9,43.0,30.03,NNE,22,0.0,0.0,86,0.00,,,0.00,WUHU21623XXSP,2013-08-06 04:41:00,
2013-08-06 00:42:00,47.1,43.2,30.03,NNE,22,0.0,0.0,86,0.00,,,0.00,WUHU21623XXSP,2013-08-06 04:42:00,
2013-08-06 00:43:00,46.9,43.0,30.03,NNE,22,0.0,0.0,86,0.00,,,0.00,WUHU21623XXSP,2013-08-06 04:43:00,
2013-08-06 00:45:00,46.8,42.8,30.03,NNE,22,0.0,0.0,86,0.00,,,0.00,WUHU21623XXSP,2013-08-06 04:45:00,
2013-08-06 00:47:00,47.1,43.2,30.03,NNE,22,0.0,0.0,86,0.00,,,0.00,WUHU21623XXSP,2013-08-06 04:47:00,
2013-08-06 00:50:00,46.6,42.6,30.03,NNE,22,0.0,0.0,86,0.00,,,0.00,WUHU21623XXSP,2013-08-06 04:50:00,
2013-08-06 00:52:00,46.2,42.3,30.03,NNE,22,0.0,0.0,86,0.00,,,0.00,WUHU21623XXSP,2013-08-06 04:52:00,
2013-08-06 00:54:00,46.2,42.3,30.03,NNE,22,0.0,0.0,86,0.00,,,0.00,WUHU21623XXSP,2013-08-06 04:54:00,
2013-08-06 00:56:00,46.2,42.3,30.03,NNE,22,0.0,0.0,86,0.00,,,0.00,WUHU21623XXSP,2013-08-06 04:56:00,
2013-08-06 00:58:00,46.0,42.1,30.03,NNE,22,0.0,0.0,86,0.00,,,0.00,WUHU21623XXSP,2013-08-06 04:58:00,
2013-08-06 00:59:00,46.8,42.8,30.03,NNE,22,0.0,0.0,86,0.00,,,0.00,WUHU21623XXSP,2013-08-06 04:59:00,
2013-08-06 01:00:00,46.0,42.1,30.03,NNE,22,0.0,0.0,86,0.00,,,0.00,WUHU21623XXSP,2013-08-06 05:00:00,
2013-08-06 01:02:00,46.0,42.1,30.03,NNE,22,0.0,0.0,86,0.00,,,0.00,WUHU21623XXSP,2013-08-06 05:02:00,
2013-08-06 01:05:00,46.0,42.1,30.03,NNE,22,0.0,0.0,86,0.00,,,0.00,WUHU21623XXSP,2013-08-06 05:05:00,
2013-08-06 01:07:00,46.6,42.8,30.03,NNE,22,0.0,0.0,86,0.00,,,0.00,WUHU21623XXSP,2013-08-06 05:07:00,
2013-08-06 01:09:00,45.7,41.8,30.03,NNE,22,0.0,0.0,86,0.00,,,0.00,WUHU21623XXSP,2013-08-06 05:09:00,
2013-08-06 01:11:00,45.7,41.8,30.03,NNE,22,0.0,0.0,86,0.00,,,0.00,WUHU21623XXSP,2013-08-06 05:11:00,
2013-08-06 01:12:00,46.6,42.6,30.03,NNE,22,0.0,0.0,86,0.00,,,0.00,WUHU21623XXSP,2013-08-06 05:12:00,
2013-08-06 01:13:00,45.7,41.8,30.03,NNE,22,0.0,0.0,86,0.00,,,0.00,WUHU21623XXSP,2013-08-06 05:13:00,
2013-08-06 01:15:00,45.7,41.8,30.03,NNE,22,0.0,0.0,86,0.00,,,0.00,WUHU21623XXSP,2013-08-06 05:15:00,
2013-08-06 01:17:00,45.5,41.6,30.03,NNE,22,0.0,0.0,86,0.00,,,0.00,WUHU21623XXSP,2013-08-06 05:17:00,
2013-08-06 01:20:00,45.1,41.2,30.03,NNE,22,0.0,0.0,86,0.00,,,0.00,WUHU21623XXSP,2013-08-06 05:20:00,
2013-08-06 01:22:00,46.8,42.8,30.03,NNE,22,0.0,0.0,86,0.00,,,0.00,WUHU21623XXSP,2013-08-06 05:22:00,
2013-08-06 01:24:00,45.0,41.0,30.03,NNE,22,0.0,0.0,86,0.00,,,0.00,WUHU21623XXSP,2013-08-06 05:24:00,
2013-08-06 01:26:00,44.8,40.9,30.03,NNE,22,0.0,0.0,86,0.00,,,0.00,WUHU21623XXSP,2013-08-06 05:26:00,
2013-08-06 01:28:00,44.8,40.9,30.03,NNE,22,0.0,0.0,86,0.00,,,0.00,WUHU21623XXSP,2013-08-06 05:28:00,
2013-08-06 01:29:00,46.6,42.6,30.03,NNE,22,0.0,0.0,86,0.00,,,0.00,WUHU21623XXSP,2013-08-06 05:29:00,
2013-08-06 01:30:00,44.6,40.7,30.03,NNE,22,0.0,0.0,86,0.00,,,0.00,WUHU21623XXSP,2013-08-06 05:30:00,
2013-08-06 01:32:00,44.4,40.5,30.03,NNE,22,0.0,0.0,86,0.00,,,0.00,WUHU21623XXSP,2013-08-06 05:32:00,
2013-08-06 01:34:00,46.4,42.5,30.03,NNE,22,0.0,0.0,86,0.00,,,0.00,WUHU21623XXSP,2013-08-06 05:34:00,
2013-08-06 01:35:00,44.2,40.3,30.03,NNE,22,0.0,0.0,86,0.00,,,0.00,WUHU21623XXSP,2013-08-06 05:35:00,
2013-08-06 01:37:00,43.9,40.0,30.03,NNE,22,0.0,0.0,86,0.00,,,0.00,WUHU21623XXSP,2013-08-06 05:37:00,
2013-08-06 01:39:00,43.9,40.3,30.03,NNE,22,0.0,0.0,87,0.00,,,0.00,WUHU21623XXSP,2013-08-06 05:39:00,
2013-08-06 01:41:00,44.1,40.4,30.04,NNE,22,0.0,0.0,87,0.00,,,0.00,WUHU21623XXSP,2013-08-06 05:41:00,
2013-08-06 01:43:00,44.2,40.6,30.03,NNE,22,0.0,0.0,87,0.00,,,0.00,WUHU21623XXSP,2013-08-06 05:43:00,
2013-08-06 01:44:00,47.1,43.2,30.03,NNE,22,0.0,0.0,86,0.00,,,0.00,WUHU21623XXSP,2013-08-06 05:44:00,
2013-08-06 01:45:00,44.2,40.6,30.04,NNE,22,0.0,0.0,87,0.00,,,0.00,WUHU21623XXSP,2013-08-06 05:45:00,
2013-08-06 01:47:00,44.2,40.6,30.04,NNE,22,0.0,0.0,87,0.00,,,0.00,WUHU21623XXSP,2013-08-06 05:47:00,
2013-08-06 01:49:00,46.9,43.0,30.03,NNE,22,0.0,0.0,86,0.00,,,0.00,WUHU21623XXSP,2013-08-06 05:49:00,
2013-08-06 01:50:00,44.4,40.8,30.04,NNE,22,0.0,0.0,87,0.00,,,0.00,WUHU21623XXSP,2013-08-06 05:50:00,
2013-08-06 01:52:00,44.4,40.8,30.04,NNE,22,0.0,0.0,87,0.00,,,0.00,WUHU21623XXSP,2013-08-06 05:52:00,
2013-08-06 01:54:00,44.4,40.8,30.04,NNE,22,0.0,0.0,87,0.00,,,0.00,WUHU21623XXSP,2013-08-06 05:54:00,
2013-08-06 01:56:00,44.4,40.8,30.04,NNE,22,0.0,0.0,87,0.00,,,0.00,WUHU21623XXSP,2013-08-06 05:56:00,
2013-08-06 01:58:00,46.2,42.3,30.03,NNE,22,0.0,0.0,86,0.00,,,0.00,WUHU21623XXSP,2013-08-06 05:58:00,
2013-08-06 02:00:00,44.8,41.2,30.04,NNE,22,0.0,0.0,87,0.00,,,0.00,WUHU21623XXSP,2013-08-06 06:00:00,
2013-08-06 02:02:00,45.0,41.3,30.04,NNE,22,0.0,0.0,87,0.00,,,0.00,WUHU21623XXSP,2013-08-06 06:02:00,
2013-08-06 02:04:00,46.0,42.1,30.03,NNE,22,0.0,0.0,86,0.00,,,0.00,WUHU21623XXSP,2013-08-06 06:04:00,
2013-08-06 02:05:00,45.0,41.3,30.04,NNE,22,0.0,0.0,87,0.00,,,0.00,WUHU21623XXSP,2013-08-06 06:05:00,
2013-08-06 02:07:00,45.0,41.3,30.04,NNE,22,0.0,0.0,87,0.00,,,0.00,WUHU21623XXSP,2013-08-06 06:07:00,
2013-08-06 02:09:00,46.0,42.1,30.03,NNE,22,0.0,0.0,86,0.00,,,0.00,WUHU21623XXSP,2013-08-06 06:09:00,
2013-08-06 02:11:00,45.0,41.3,30.04,NNE,22,0.0,0.0,87,0.00,,,0.00,WUHU21623XXSP,2013-08-06 06:11:00,
2013-08-06 02:13:00,44.8,41.2,30.04,NNE,22,0.0,0.0,87,0.00,,,0.00,WUHU21623XXSP,2013-08-06 06:13:00,
2013-08-06 02:15:00,44.8,41.2,30.04,NNE,22,0.0,0.0,87,0.00,,,0.00,WUHU21623XXSP,2013-08-06 06:15:00,
2013-08-06 02:17:00,44.4,40.8,30.04,NNE,22,0.0,0.0,87,0.00,,,0.00,WUHU21623XXSP,2013-08-06 06:17:00,
2013-08-06 02:19:00,44.2,40.6,30.04,NNE,22,0.0,0.0,87,0.00,,,0.00,WUHU21623XXSP,2013-08-06 06:19:00,
2013-08-06 02:20:00,45.7,41.8,30.03,NNE,22,0.0,0.0,86,0.00,,,0.00,WUHU21623XXSP,2013-08-06 06:20:00,
2013-08-06 02:22:00,44.2,40.6,30.04,NNE,22,0.0,0.0,87,0.00,,,0.00,WUHU21623XXSP,2013-08-06 06:22:00,
2013-08-06 02:24:00,43.9,40.3,30.04,NNE,22,0.0,0.0,87,0.00,,,0.00,WUHU21623XXSP,2013-08-06 06:24:00,
2013-08-06 02:26:00,45.1,41.2,30.03,NNE,22,0.0,0.0,86,0.00,,,0.00,WUHU21623XXSP,2013-08-06 06:26:00,
2013-08-06 02:28:00,43.9,40.3,30.04,NNE,22,0.0,0.0,87,0.00,,,0.00,WUHU21623XXSP,2013-08-06 06:28:00,
2013-08-06 02:30:00,43.7,40.1,30.04,NNE,22,0.0,0.0,87,0.00,,,0.00,WUHU21623XXSP,2013-08-06 06:30:00,
2013-08-06 02:33:00,43.5,39.9,30.04,NNE,22,0.0,0.0,87,0.00,,,0.00,WUHU21623XXSP,2013-08-06 06:33:00,
2013-08-06 02:34:00,43.5,39.9,30.04,NNE,22,0.0,0.0,87,0.00,,,0.00,WUHU21623XXSP,2013-08-06 06:34:00,
2013-08-06 02:37:00,43.3,39.7,30.04,NNE,22,0.0,0.0,87,0.00,,,0.00,WUHU21623XXSP,2013-08-06 06:37:00,
2013-08-06 02:39:00,43.3,39.7,30.04,NNE,22,0.0,0.0,87,0.00,,,0.00,WUHU21623XXSP,2013-08-06 06:39:00,
2013-08-06 02:41:00,43.3,39.7,30.04,NNE,22,0.0,0.0,87,0.00,,,0.00,WUHU21623XXSP,2013-08-06 06:41:00,
2013-08-06 02:43:00,43.9,40.0,30.03,NNE,22,0.0,0.0,86,0.00,,,0.00,WUHU21623XXSP,2013-08-06 06:43:00,
2013-08-06 02:45:00,43.2,39.5,30.04,NNE,22,0.0,0.0,87,0.00,,,0.00,WUHU21623XXSP,2013-08-06 06:45:00,
2013-08-06 02:47:00,43.3,39.7,30.04,NNE,22,0.0,0.0,87,0.00,,,0.00,WUHU21623XXSP,2013-08-06 06:47:00,
2013-08-06 02:48:00,44.2,40.6,30.03,NNE,22,0.0,0.0,87,0.00,,,0.00,WUHU21623XXSP,2013-08-06 06:48:00,
2013-08-06 02:49:00,43.5,39.9,30.04,NNE,22,0.0,0.0,87,0.00,,,0.00,WUHU21623XXSP,2013-08-06 06:49:00,
2013-08-06 02:52:00,43.5,39.9,30.04,NNE,22,0.0,0.0,87,0.00,,,0.00,WUHU21623XXSP,2013-08-06 06:52:00,
2013-08-06 02:54:00,43.5,39.9,30.04,NNE,22,0.0,0.0,87,0.00,,,0.00,WUHU21623XXSP,2013-08-06 06:54:00,
2013-08-06 02:56:00,43.5,39.9,30.04,NNE,22,0.0,0.0,87,0.00,,,0.00,WUHU21623XXSP,2013-08-06 06:56:00,
2013-08-06 02:58:00,43.5,39.9,30.04,NNE,22,0.0,0.0,87,0.00,,,0.00,WUHU21623XXSP,2013-08-06 06:58:00,
2013-08-06 03:00:00,43.5,39.9,30.04,NNE,22,0.0,0.0,87,0.00,,,0.00,WUHU21623XXSP,2013-08-06 07:00:00,
2013-08-06 03:02:00,43.5,39.9,30.04,NNE,22,0.0,0.0,87,0.00,,,0.00,WUHU21623XXSP,2013-08-06 07:02:00,
2013-08-06 03:05:00,43.5,39.9,30.04,NNE,22,0.0,0.0,87,0.00,,,0.00,WUHU21623XXSP,2013-08-06 07:05:00,
2013-08-06 03:07:00,43.3,39.7,30.04,NNE,22,0.0,0.0,87,0.00,,,0.00,WUHU21623XXSP,2013-08-06 07:07:00,
2013-08-06 03:09:00,45.0,41.3,30.04,NNE,22,0.0,0.0,87,0.00,,,0.00,WUHU21623XXSP,2013-08-06 07:09:00,
2013-08-06 03:11:00,43.0,39.4,30.04,NNE,22,0.0,0.0,87,0.00,,,0.00,WUHU21623XXSP,2013-08-06 07:11:00,
2013-08-06 03:13:00,43.2,39.5,30.04,NNE,22,0.0,0.0,87,0.00,,,0.00,WUHU21623XXSP,2013-08-06 07:13:00,
2013-08-06 03:15:00,43.2,39.5,30.04,NNE,22,0.0,0.0,87,0.00,,,0.00,WUHU21623XXSP,2013-08-06 07:15:00,
2013-08-06 03:17:00,43.3,39.7,30.04,NNE,22,0.0,0.0,87,0.00,,,0.00,WUHU21623XXSP,2013-08-06 07:17:00,
2013-08-06 03:19:00,43.3,39.7,30.04,NNE,22,0.0,0.0,87,0.00,,,0.00,WUHU21623XXSP,2013-08-06 07:19:00,
2013-08-06 03:22:00,43.3,39.7,30.04,NNE,22,0.0,0.0,87,0.00,,,0.00,WUHU21623XXSP,2013-08-06 07:22:00,
2013-08-06 03:24:00,43.5,39.9,30.03,NNE,22,0.0,0.0,87,0.00,,,0.00,WUHU21623XXSP,2013-08-06 07:24:00,
2013-08-06 03:26:00,44.2,40.6,30.04,NNE,22,0.0,0.0,87,0.00,,,0.00,WUHU21623XXSP,2013-08-06 07:26:00,
2013-08-06 03:28:00,43.3,39.7,30.04,NNE,22,0.0,0.0,87,0.00,,,0.00,WUHU21623XXSP,2013-08-06 07:28:00,
2013-08-06 03:30:00,43.2,39.5,30.04,NNE,22,0.0,0.0,87,0.00,,,0.00,WUHU21623XXSP,2013-08-06 07:30:00,
2013-08-06 03:32:00,43.2,39.5,30.04,NNE,22,0.0,0.0,87,0.00,,,0.00,WUHU21623XXSP,2013-08-06 07:32:00,
2013-08-06 03:34:00,43.3,39.7,30.04,NNE,22,0.0,0.0,87,0.00,,,0.00,WUHU21623XXSP,2013-08-06 07:34:00,
2013-08-06 03:37:00,43.2,39.5,30.04,NNE,22,0.0,0.0,87,0.00,,,0.00,WUHU21623XXSP,2013-08-06 07:37:00,
2013-08-06 03:39:00,43.0,39.4,30.05,NNE,22,0.0,0.0,87,0.00,,,0.00,WUHU21623XXSP,2013-08-06 07:39:00,
2013-08-06 03:41:00,43.5,39.9,30.04,NNE,22,0.0,0.0,87,0.00,,,0.00,WUHU21623XXSP,2013-08-06 07:41:00,
2013-08-06 03:43:00,43.2,39.5,30.05,NNE,22,0.0,0.0,87,0.00,,,0.00,WUHU21623XXSP,2013-08-06 07:43:00,
2013-08-06 03:45:00,43.3,39.7,30.05,NNE,22,0.0,0.0,87,0.00,,,0.00,WUHU21623XXSP,2013-08-06 07:45:00,
2013-08-06 03:47:00,43.3,39.7,30.04,NNE,22,0.0,0.0,87,0.00,,,0.00,WUHU21623XXSP,2013-08-06 07:47:00,
2013-08-06 03:49:00,43.3,39.7,30.05,NNE,22,0.0,0.0,87,0.00,,,0.00,WUHU21623XXSP,2013-08-06 07:49:00,
2013-08-06 03:51:00,43.2,39.5,30.05,NNE,22,0.0,0.0,87,0.00,,,0.00,WUHU21623XXSP,2013-08-06 07:51:00,
2013-08-06 03:54:00,43.0,39.4,30.05,NNE,22,0.0,0.0,87,0.00,,,0.00,WUHU21623XXSP,2013-08-06 07:54:00,
2013-08-06 03:56:00,43.0,39.4,30.05,NNE,22,0.0,0.0,87,0.00,,,0.00,WUHU21623XXSP,2013-08-06 07:56:00,
2013-08-06 03:58:00,43.0,39.4,30.05,NNE,22,0.0,0.0,87,0.00,,,0.00,WUHU21623XXSP,2013-08-06 07:58:00,
2013-08-06 04:00:00,43.0,39.4,30.05,NNE,22,0.0,0.0,87,0.00,,,0.00,WUHU21623XXSP,2013-08-06 08:00:00,
2013-08-06 04:02:00,43.0,39.4,30.05,NNE,22,0.0,0.0,87,0.00,,,0.00,WUHU21623XXSP,2013-08-06 08:02:00,
2013-08-06 04:04:00,43.0,39.4,30.05,NNE,22,0.0,0.0,87,0.00,,,0.00,WUHU21623XXSP,2013-08-06 08:04:00,
2013-08-06 04:06:00,43.5,39.9,30.04,NNE,22,0.0,0.0,87,0.00,,,0.00,WUHU21623XXSP,2013-08-06 08:06:00,
2013-08-06 04:09:00,43.0,39.4,30.05,NNE,22,0.0,0.0,87,0.00,,,0.00,WUHU21623XXSP,2013-08-06 08:09:00,
2013-08-06 04:11:00,42.6,39.0,30.05,NNE,22,0.0,0.0,87,0.00,,,0.00,WUHU21623XXSP,2013-08-06 08:11:00,
2013-08-06 04:13:00,42.6,39.0,30.05,NNE,22,0.0,0.0,87,0.00,,,0.00,WUHU21623XXSP,2013-08-06 08:13:00,
2013-08-06 04:14:00,43.3,39.7,30.04,NNE,22,0.0,0.0,87,0.00,,,0.00,WUHU21623XXSP,2013-08-06 08:14:00,
2013-08-06 04:15:00,42.6,39.0,30.05,NNE,22,0.0,0.0,87,0.00,,,0.00,WUHU21623XXSP,2013-08-06 08:15:00,
2013-08-06 04:17:00,42.6,39.0,30.05,NNE,22,0.0,0.0,87,0.00,,,0.00,WUHU21623XXSP,2013-08-06 08:17:00,
2013-08-06 04:19:00,42.6,39.0,30.05,NNE,22,0.0,0.0,87,0.00,,,0.00,WUHU21623XXSP,2013-08-06 08:19:00,
2013-08-06 04:21:00,42.6,39.0,30.05,NNE,22,0.0,0.0,87,0.00,,,0.00,WUHU21623XXSP,2013-08-06 08:21:00,
2013-08-06 04:24:00,42.6,39.0,30.05,NNE,22,0.0,0.0,87,0.00,,,0.00,WUHU21623XXSP,2013-08-06 08:24:00,
2013-08-06 04:26:00,42.6,39.0,30.05,NNE,22,0.0,0.0,87,0.00,,,0.00,WUHU21623XXSP,2013-08-06 08:26:00,
2013-08-06 04:28:00,42.6,39.0,30.05,NNE,22,0.0,0.0,87,0.00,,,0.00,WUHU21623XXSP,2013-08-06 08:28:00,
2013-08-06 04:30:00,42.6,39.0,30.05,NNE,22,0.0,0.0,87,0.00,,,0.00,WUHU21623XXSP,2013-08-06 08:30:00,
2013-08-06 04:32:00,42.6,39.0,30.05,NNE,22,0.0,0.0,87,0.00,,,0.00,WUHU21623XXSP,2013-08-06 08:32:00,
2013-08-06 04:34:00,42.6,39.0,30.05,NNE,22,0.0,0.0,87,0.00,,,0.00,WUHU21623XXSP,2013-08-06 08:34:00,
2013-08-06 04:36:00,42.4,38.8,30.05,NNE,22,0.0,0.0,87,0.00,,,0.00,WUHU21623XXSP,2013-08-06 08:36:00,
2013-08-06 04:39:00,42.4,38.8,30.05,NNE,22,0.0,0.0,87,0.00,,,0.00,WUHU21623XXSP,2013-08-06 08:39:00,
2013-08-06 04:41:00,42.6,39.0,30.05,NNE,22,0.0,0.0,87,0.00,,,0.00,WUHU21623XXSP,2013-08-06 08:41:00,
2013-08-06 04:43:00,42.6,39.0,30.05,NNE,22,0.0,0.0,87,0.00,,,0.00,WUHU21623XXSP,2013-08-06 08:43:00,
2013-08-06 04:45:00,42.6,39.0,30.05,NNE,22,0.0,0.0,87,0.00,,,0.00,WUHU21623XXSP,2013-08-06 08:45:00,
2013-08-06 04:47:00,43.0,39.4,30.05,NNE,22,0.0,0.0,87,0.00,,,0.00,WUHU21623XXSP,2013-08-06 08:47:00,
2013-08-06 04:49:00,43.0,39.4,30.05,NNE,22,0.0,0.0,87,0.00,,,0.00,WUHU21623XXSP,2013-08-06 08:49:00,
2013-08-06 04:51:00,43.0,39.4,30.05,NNE,22,0.0,0.0,87,0.00,,,0.00,WUHU21623XXSP,2013-08-06 08:51:00,
2013-08-06 04:54:00,42.8,39.2,30.05,NNE,22,0.0,0.0,87,0.00,,,0.00,WUHU21623XXSP,2013-08-06 08:54:00,
2013-08-06 04:56:00,42.8,39.2,30.05,NNE,22,0.0,0.0,87,0.00,,,0.00,WUHU21623XXSP,2013-08-06 08:56:00,
2013-08-06 04:58:00,43.2,39.5,30.05,NNE,22,0.0,0.0,87,0.00,,,0.00,WUHU21623XXSP,2013-08-06 08:58:00,
2013-08-06 05:00:00,42.6,39.0,30.05,NNE,22,0.0,0.0,87,0.00,,,0.00,WUHU21623XXSP,2013-08-06 09:00:00,
2013-08-06 05:02:00,42.6,39.0,30.05,NNE,22,0.0,0.0,87,0.00,,,0.00,WUHU21623XXSP,2013-08-06 09:02:00,
2013-08-06 05:04:00,42.6,39.0,30.06,NNE,22,0.0,0.0,87,0.00,,,0.00,WUHU21623XXSP,2013-08-06 09:04:00,
2013-08-06 05:06:00,42.6,39.0,30.06,NNE,22,0.0,0.0,87,0.00,,,0.00,WUHU21623XXSP,2013-08-06 09:06:00,
2013-08-06 05:08:00,42.6,39.0,30.06,NNE,22,0.0,0.0,87,0.00,,,0.00,WUHU21623XXSP,2013-08-06 09:08:00,
2013-08-06 05:11:00,42.6,39.0,30.06,NNE,22,0.0,0.0,87,0.00,,,0.00,WUHU21623XXSP,2013-08-06 09:11:00,
2013-08-06 05:13:00,42.6,39.0,30.06,NNE,22,0.0,0.0,87,0.00,,,0.00,WUHU21623XXSP,2013-08-06 09:13:00,
2013-08-06 05:15:00,42.6,39.0,30.06,NNE,22,0.0,0.0,87,0.00,,,0.00,WUHU21623XXSP,2013-08-06 09:15:00,
2013-08-06 05:17:00,42.6,39.0,30.06,NNE,22,0.0,0.0,87,0.00,,,0.00,WUHU21623XXSP,2013-08-06 09:17:00,
2013-08-06 05:19:00,42.6,39.0,30.06,NNE,22,0.0,0.0,87,0.00,,,0.00,WUHU21623XXSP,2013-08-06 09:19:00,
2013-08-06 05:21:00,43.0,39.4,30.06,NNE,22,0.0,0.0,87,0.00,,,0.00,WUHU21623XXSP,2013-08-06 09:21:00,
2013-08-06 05:23:00,43.0,39.4,30.06,NNE,22,0.0,0.0,87,0.00,,,0.00,WUHU21623XXSP,2013-08-06 09:23:00,
2013-08-06 05:26:00,43.2,39.5,30.06,NNE,22,0.0,0.0,87,0.00,,,0.00,WUHU21623XXSP,2013-08-06 09:26:00,
2013-08-06 05:28:00,43.3,39.7,30.06,NNE,22,0.0,0.0,87,0.00,,,0.00,WUHU21623XXSP,2013-08-06 09:28:00,
2013-08-06 05:30:00,43.5,39.9,30.06,NNE,22,0.0,0.0,87,0.00,,,0.00,WUHU21623XXSP,2013-08-06 09:30:00,
2013-08-06 05:32:00,43.7,40.1,30.06,NNE,22,0.0,0.0,87,0.00,,,0.00,WUHU21623XXSP,2013-08-06 09:32:00,
2013-08-06 05:34:00,43.7,40.1,30.06,NNE,22,0.0,0.0,87,0.00,,,0.00,WUHU21623XXSP,2013-08-06 09:34:00,
2013-08-06 05:36:00,43.9,40.3,30.06,NNE,22,0.0,0.0,87,0.00,,,0.00,WUHU21623XXSP,2013-08-06 09:36:00,
2013-08-06 05:38:00,44.2,40.6,30.06,NNE,22,0.0,0.0,87,0.00,,,0.00,WUHU21623XXSP,2013-08-06 09:38:00,
2013-08-06 05:41:00,44.4,40.8,30.06,NNE,22,0.0,0.0,87,0.00,,,0.00,WUHU21623XXSP,2013-08-06 09:41:00,
2013-08-06 05:43:00,44.4,40.8,30.06,NNE,22,0.0,0.0,87,0.00,,,0.00,WUHU21623XXSP,2013-08-06 09:43:00,
2013-08-06 05:45:00,44.6,41.3,30.06,NNE,22,0.0,0.0,88,0.00,,,0.00,WUHU21623XXSP,2013-08-06 09:45:00,
2013-08-06 05:47:00,45.0,41.6,30.06,NNE,22,0.0,0.0,88,0.00,,,0.00,WUHU21623XXSP,2013-08-06 09:47:00,
2013-08-06 05:49:00,45.1,41.5,30.06,NNE,22,0.0,0.0,87,0.00,,,0.00,WUHU21623XXSP,2013-08-06 09:49:00,
2013-08-06 05:51:00,45.7,42.1,30.06,NNE,22,0.0,0.0,87,0.00,,,0.00,WUHU21623XXSP,2013-08-06 09:51:00,
2013-08-06 05:54:00,46.2,42.6,30.06,NNE,22,0.0,0.0,87,0.00,,,0.00,WUHU21623XXSP,2013-08-06 09:54:00,
2013-08-06 05:56:00,46.2,42.6,30.06,NNE,22,0.0,0.0,87,0.00,,,0.00,WUHU21623XXSP,2013-08-06 09:56:00,
2013-08-06 05:58:00,47.3,43.6,30.06,NNE,22,0.0,0.0,87,0.00,,,0.00,WUHU21623XXSP,2013-08-06 09:58:00,
2013-08-06 06:00:00,48.0,44.3,30.07,NNE,22,0.0,0.0,87,0.00,,,0.00,WUHU21623XXSP,2013-08-06 10:00:00,
2013-08-06 06:02:00,48.7,45.0,30.07,NNE,22,0.0,0.0,87,0.00,,,0.00,WUHU21623XXSP,2013-08-06 10:02:00,
2013-08-06 06:04:00,49.3,45.5,30.07,NNE,22,0.0,0.0,87,0.00,,,0.00,WUHU21623XXSP,2013-08-06 10:04:00,
2013-08-06 06:06:00,49.8,46.0,30.07,NNE,22,0.0,0.0,87,0.00,,,0.00,WUHU21623XXSP,2013-08-06 10:06:00,
2013-08-06 06:08:00,50.2,46.4,30.07,NNE,22,0.0,0.0,87,0.00,,,0.00,WUHU21623XXSP,2013-08-06 10:08:00,
2013-08-06 06:09:00,42.6,39.0,30.05,NNE,22,0.0,0.0,87,0.00,,,0.00,WUHU21623XXSP,2013-08-06 10:09:00,
2013-08-06 06:11:00,50.5,46.7,30.07,NNE,22,0.0,0.0,87,0.00,,,0.00,WUHU21623XXSP,2013-08-06 10:11:00,
2013-08-06 06:13:00,51.1,47.3,30.07,NNE,22,0.0,0.0,87,0.00,,,0.00,WUHU21623XXSP,2013-08-06 10:13:00,
2013-08-06 06:15:00,51.6,47.8,30.07,NNE,22,0.0,0.0,87,0.00,,,0.00,WUHU21623XXSP,2013-08-06 10:15:00,
2013-08-06 06:17:00,52.0,48.2,30.07,NNE,22,0.0,0.0,87,0.00,,,0.00,WUHU21623XXSP,2013-08-06 10:17:00,
2013-08-06 06:19:00,52.3,48.5,30.07,NNE,22,0.0,0.0,87,0.00,,,0.00,WUHU21623XXSP,2013-08-06 10:19:00,
2013-08-06 06:21:00,52.9,49.1,30.07,NNE,22,0.0,0.0,87,0.00,,,0.00,WUHU21623XXSP,2013-08-06 10:21:00,
2013-08-06 06:24:00,53.1,49.0,30.07,NNE,22,0.0,0.0,86,0.00,,,0.00,WUHU21623XXSP,2013-08-06 10:24:00,
2013-08-06 06:26:00,53.4,49.6,30.07,NNE,22,0.0,0.0,87,0.00,,,0.00,WUHU21623XXSP,2013-08-06 10:26:00,
2013-08-06 06:28:00,53.8,50.0,30.06,NNE,22,0.0,0.0,87,0.00,,,0.00,WUHU21623XXSP,2013-08-06 10:28:00,
2013-08-06 06:30:00,54.0,50.1,30.06,NNE,22,0.0,0.0,87,0.00,,,0.00,WUHU21623XXSP,2013-08-06 10:30:00,
2013-08-06 06:32:00,54.1,50.3,30.06,NNE,22,0.0,0.0,87,0.00,,,0.00,WUHU21623XXSP,2013-08-06 10:32:00,
2013-08-06 06:34:00,54.1,50.3,30.06,NNE,22,0.0,0.0,87,0.00,,,0.00,WUHU21623XXSP,2013-08-06 10:34:00,
2013-08-06 06:36:00,54.3,50.5,30.06,NNE,22,0.0,0.0,87,0.00,,,0.00,WUHU21623XXSP,2013-08-06 10:36:00,
2013-08-06 06:38:00,54.7,50.8,30.06,NNE,22,0.0,0.0,87,0.00,,,0.00,WUHU21623XXSP,2013-08-06 10:38:00,
2013-08-06 06:41:00,55.0,51.2,30.06,NNE,22,0.0,0.0,87,0.00,,,0.00,WUHU21623XXSP,2013-08-06 10:41:00,
2013-08-06 06:43:00,55.2,51.4,30.07,NNE,22,0.0,0.0,87,0.00,,,0.00,WUHU21623XXSP,2013-08-06 10:43:00,
2013-08-06 06:45:00,55.6,51.7,30.07,NNE,22,0.0,0.0,87,0.00,,,0.00,WUHU21623XXSP,2013-08-06 10:45:00,
2013-08-06 06:47:00,55.9,52.1,30.07,NNE,22,0.0,0.0,87,0.00,,,0.00,WUHU21623XXSP,2013-08-06 10:47:00,
2013-08-06 06:49:00,56.1,51.9,30.07,NNE,22,0.0,0.0,86,0.00,,,0.00,WUHU21623XXSP,2013-08-06 10:49:00,
2013-08-06 06:51:00,56.1,51.9,30.06,NNE,22,0.0,0.0,86,0.00,,,0.00,WUHU21623XXSP,2013-08-06 10:51:00,
2013-08-06 06:53:00,56.3,52.1,30.07,NNE,22,0.0,0.0,86,0.00,,,0.00,WUHU21623XXSP,2013-08-06 10:53:00,
2013-08-06 06:56:00,56.8,52.7,30.07,NNE,22,0.0,0.0,86,0.00,,,0.00,WUHU21623XXSP,2013-08-06 10:56:00,
2013-08-06 06:58:00,57.4,53.2,30.07,NNE,22,0.0,0.0,86,0.00,,,0.00,WUHU21623XXSP,2013-08-06 10:58:00,
2013-08-06 07:00:00,57.7,53.6,30.07,NNE,22,0.0,0.0,86,0.00,,,0.00,WUHU21623XXSP,2013-08-06 11:00:00,
2013-08-06 07:02:00,58.1,53.9,30.07,NNE,22,0.0,0.0,86,0.00,,,0.00,WUHU21623XXSP,2013-08-06 11:02:00,
2013-08-06 07:04:00,58.8,54.6,30.07,NNE,22,0.0,0.0,86,0.00,,,0.00,WUHU21623XXSP,2013-08-06 11:04:00,
2013-08-06 07:06:00,59.2,55.0,30.07,NNE,22,0.0,0.0,86,0.00,,,0.00,WUHU21623XXSP,2013-08-06 11:06:00,
2013-08-06 07:08:00,59.4,55.2,30.07,NNE,22,0.0,0.0,86,0.00,,,0.00,WUHU21623XXSP,2013-08-06 11:08:00,
2013-08-06 07:11:00,59.5,55.4,30.07,NNE,22,0.0,0.0,86,0.00,,,0.00,WUHU21623XXSP,2013-08-06 11:11:00,
2013-08-06 07:13:00,49.8,46.0,30.07,NNE,22,0.0,0.0,87,0.00,,,0.00,WUHU21623XXSP,2013-08-06 11:13:00,
2013-08-06 07:15:00,59.2,54.7,30.07,NNE,22,0.0,0.0,85,0.00,,,0.00,WUHU21623XXSP,2013-08-06 11:15:00,
2013-08-06 07:17:00,59.5,55.0,30.07,NNE,22,0.0,0.0,85,0.00,,,0.00,WUHU21623XXSP,2013-08-06 11:17:00,
2013-08-06 07:19:00,60.1,55.6,30.07,NNE,22,0.0,0.0,85,0.00,,,0.00,WUHU21623XXSP,2013-08-06 11:19:00,
2013-08-06 07:21:00,60.4,55.9,30.07,NNE,22,0.0,0.0,85,0.00,,,0.00,WUHU21623XXSP,2013-08-06 11:21:00,
2013-08-06 07:23:00,61.0,56.5,30.07,NNE,22,0.0,0.0,85,0.00,,,0.00,WUHU21623XXSP,2013-08-06 11:23:00,
2013-08-06 07:26:00,61.7,57.1,30.07,NNE,22,0.0,0.0,85,0.00,,,0.00,WUHU21623XXSP,2013-08-06 11:26:00,
2013-08-06 07:28:00,62.4,57.5,30.07,NNE,22,0.0,0.0,84,0.00,,,0.00,WUHU21623XXSP,2013-08-06 11:28:00,
2013-08-06 07:30:00,63.0,56.7,30.07,NNE,22,0.0,0.0,80,0.00,,,0.00,WUHU21623XXSP,2013-08-06 11:30:00,
2013-08-06 07:32:00,63.1,56.5,30.07,NNE,22,0.0,0.0,79,0.00,,,0.00,WUHU21623XXSP,2013-08-06 11:32:00,
2013-08-06 07:34:00,63.7,57.0,30.07,NNE,22,0.0,0.0,79,0.00,,,0.00,WUHU21623XXSP,2013-08-06 11:34:00,
2013-08-06 07:36:00,64.0,57.0,30.07,NNE,22,0.0,0.0,78,0.00,,,0.00,WUHU21623XXSP,2013-08-06 11:36:00,
2013-08-06 07:38:00,64.2,56.5,30.07,NNE,22,0.0,0.0,76,0.00,,,0.00,WUHU21623XXSP,2013-08-06 11:38:00,
2013-08-06 07:41:00,64.2,55.8,30.07,NNE,22,0.0,0.0,74,0.00,,,0.00,WUHU21623XXSP,2013-08-06 11:41:00,
2013-08-06 07:43:00,64.6,56.1,30.07,NNE,22,0.0,0.0,74,0.00,,,0.00,WUHU21623XXSP,2013-08-06 11:43:00,
2013-08-06 07:45:00,64.8,55.9,30.07,NNE,22,0.0,0.0,73,0.00,,,0.00,WUHU21623XXSP,2013-08-06 11:45:00,
2013-08-06 07:47:00,64.9,56.1,30.07,NNE,22,0.0,0.0,73,0.00,,,0.00,WUHU21623XXSP,2013-08-06 11:47:00,
2013-08-06 07:49:00,65.3,56.4,30.07,NNE,22,0.0,0.0,73,0.00,,,0.00,WUHU21623XXSP,2013-08-06 11:49:00,
2013-08-06 07:51:00,65.3,55.7,30.07,NNE,22,0.0,0.0,71,0.00,,,0.00,WUHU21623XXSP,2013-08-06 11:51:00,
2013-08-06 07:53:00,65.5,55.8,30.06,NNE,22,0.0,0.0,71,0.00,,,0.00,WUHU21623XXSP,2013-08-06 11:53:00,
2013-08-06 07:55:00,65.5,55.8,30.07,NNE,22,0.4,0.4,71,0.00,,,0.00,WUHU21623XXSP,2013-08-06 11:55:00,
2013-08-06 07:58:00,65.5,55.5,30.07,NNE,22,0.0,0.4,70,0.00,,,0.00,WUHU21623XXSP,2013-08-06 11:58:00,
2013-08-06 08:00:00,65.7,55.6,30.07,NNE,22,0.0,0.4,70,0.00,,,0.00,WUHU21623XXSP,2013-08-06 12:00:00,
2013-08-06 08:02:00,65.8,55.8,30.06,NNE,22,0.0,0.4,70,0.00,,,0.00,WUHU21623XXSP,2013-08-06 12:02:00,
2013-08-06 08:04:00,66.0,55.5,30.06,NNE,22,0.0,0.4,69,0.00,,,0.00,WUHU21623XXSP,2013-08-06 12:04:00,
2013-08-06 08:06:00,66.6,56.5,30.06,NNE,22,0.0,0.0,70,0.00,,,0.00,WUHU21623XXSP,2013-08-06 12:06:00,
2013-08-06 08:08:00,66.9,56.8,30.07,NNE,22,0.0,0.0,70,0.00,,,0.00,WUHU21623XXSP,2013-08-06 12:08:00,
2013-08-06 08:11:00,67.3,56.8,30.06,NNE,22,0.0,0.0,69,0.00,,,0.00,WUHU21623XXSP,2013-08-06 12:11:00,
2013-08-06 08:13:00,67.6,57.1,30.06,NNE,22,0.0,0.0,69,0.00,,,0.00,WUHU21623XXSP,2013-08-06 12:13:00,
2013-08-06 08:15:00,67.8,56.9,30.07,NNE,22,0.0,0.0,68,0.00,,,0.00,WUHU21623XXSP,2013-08-06 12:15:00,
2013-08-06 08:17:00,67.8,56.9,30.06,NNE,22,0.0,0.0,68,0.00,,,0.00,WUHU21623XXSP,2013-08-06 12:17:00,
2013-08-06 08:19:00,68.2,56.8,30.07,NNE,22,0.4,0.4,67,0.00,,,0.00,WUHU21623XXSP,2013-08-06 12:19:00,
2013-08-06 08:21:00,68.4,56.1,30.07,NNE,22,0.0,0.4,65,0.00,,,0.00,WUHU21623XXSP,2013-08-06 12:21:00,
2013-08-06 08:23:00,68.5,56.3,30.07,NNE,22,0.0,0.4,65,0.00,,,0.00,WUHU21623XXSP,2013-08-06 12:23:00,
2013-08-06 08:25:00,68.5,56.3,30.07,NNE,22,0.0,0.4,65,0.00,,,0.00,WUHU21623XXSP,2013-08-06 12:25:00,
2013-08-06 08:28:00,68.5,55.8,30.07,NNE,22,0.0,0.4,64,0.00,,,0.00,WUHU21623XXSP,2013-08-06 12:28:00,
2013-08-06 08:30:00,68.4,56.1,30.07,NNE,22,0.7,0.7,65,0.00,,,0.00,WUHU21623XXSP,2013-08-06 12:30:00,
2013-08-06 08:32:00,68.2,55.9,30.07,NNE,22,0.0,0.7,65,0.00,,,0.00,WUHU21623XXSP,2013-08-06 12:32:00,
2013-08-06 08:34:00,68.2,56.4,30.07,NNE,22,0.0,0.7,66,0.00,,,0.00,WUHU21623XXSP,2013-08-06 12:34:00,
2013-08-06 08:36:00,68.2,56.4,30.07,NNE,22,0.0,0.7,66,0.00,,,0.00,WUHU21623XXSP,2013-08-06 12:36:00,
2013-08-06 08:38:00,68.5,56.3,30.07,NNE,22,0.4,0.7,65,0.00,,,0.00,WUHU21623XXSP,2013-08-06 12:38:00,
2013-08-06 08:41:00,68.7,56.9,30.07,NNE,22,0.0,0.4,66,0.00,,,0.00,WUHU21623XXSP,2013-08-06 12:41:00,
2013-08-06 08:43:00,68.9,56.2,30.07,NNE,22,0.0,0.4,64,0.00,,,0.00,WUHU21623XXSP,2013-08-06 12:43:00,
2013-08-06 08:45:00,68.9,56.2,30.07,NNE,22,0.0,0.4,64,0.00,,,0.00,WUHU21623XXSP,2013-08-06 12:45:00,
2013-08-06 08:47:00,69.1,56.4,30.07,NNE,22,0.0,0.4,64,0.00,,,0.00,WUHU21623XXSP,2013-08-06 12:47:00,
2013-08-06 08:49:00,69.3,56.9,30.07,NNE,22,0.0,0.0,65,0.00,,,0.00,WUHU21623XXSP,2013-08-06 12:49:00,
2013-08-06 08:51:00,69.6,57.7,30.07,NNE,22,0.0,0.0,66,0.00,,,0.00,WUHU21623XXSP,2013-08-06 12:51:00,
2013-08-06 08:53:00,69.4,57.1,30.07,NNE,22,0.0,0.0,65,0.00,,,0.00,WUHU21623XXSP,2013-08-06 12:53:00,
2013-08-06 08:55:00,69.6,57.3,30.06,NNE,22,0.0,0.0,65,0.00,,,0.00,WUHU21623XXSP,2013-08-06 12:55:00,
2013-08-06 08:58:00,70.0,56.8,30.06,NNE,22,0.0,0.0,63,0.00,,,0.00,WUHU21623XXSP,2013-08-06 12:58:00,
2013-08-06 09:00:00,70.0,56.8,30.07,NNE,22,0.0,0.0,63,0.00,,,0.00,WUHU21623XXSP,2013-08-06 13:00:00,
2013-08-06 09:02:00,69.8,56.2,30.06,NNE,22,0.0,0.0,62,0.00,,,0.00,WUHU21623XXSP,2013-08-06 13:02:00,
2013-08-06 09:04:00,70.0,56.4,30.07,NNE,22,0.0,0.0,62,0.00,,,0.00,WUHU21623XXSP,2013-08-06 13:04:00,
2013-08-06 09:06:00,70.3,57.1,30.07,NNE,22,0.0,0.0,63,0.00,,,0.00,WUHU21623XXSP,2013-08-06 13:06:00,
2013-08-06 09:08:00,70.9,57.6,30.06,NNE,22,0.0,0.0,63,0.00,,,0.00,WUHU21623XXSP,2013-08-06 13:08:00,
2013-08-06 09:10:00,70.9,56.4,30.06,NNE,22,7.6,7.6,60,0.00,,,0.00,WUHU21623XXSP,2013-08-06 13:10:00,
2013-08-06 09:12:00,66.6,56.5,30.06,NNE,22,0.0,0.0,70,0.00,,,0.00,WUHU21623XXSP,2013-08-06 13:12:00,
2013-08-06 09:13:00,70.3,56.7,30.06,NNE,22,0.0,7.6,62,0.00,,,0.00,WUHU21623XXSP,2013-08-06 13:13:00,
2013-08-06 09:15:00,70.5,57.3,30.06,NNE,22,0.0,7.6,63,0.00,,,0.00,WUHU21623XXSP,2013-08-06 13:15:00,
2013-08-06 09:17:00,70.7,57.5,30.06,NNE,22,0.0,7.6,63,0.00,,,0.00,WUHU21623XXSP,2013-08-06 13:17:00,
2013-08-06 09:19:00,70.9,57.6,30.06,NNE,22,0.0,7.6,63,0.00,,,0.00,WUHU21623XXSP,2013-08-06 13:19:00,
2013-08-06 09:21:00,71.1,57.8,30.06,NNE,22,0.0,0.0,63,0.00,,,0.00,WUHU21623XXSP,2013-08-06 13:21:00,
2013-08-06 09:23:00,71.2,58.0,30.06,NNE,22,0.0,0.0,63,0.00,,,0.00,WUHU21623XXSP,2013-08-06 13:23:00,
2013-08-06 09:25:00,71.4,57.7,30.06,NNE,22,0.0,0.0,62,0.00,,,0.00,WUHU21623XXSP,2013-08-06 13:25:00,
2013-08-06 09:26:00,68.2,56.8,30.07,NNE,22,0.4,0.4,67,0.00,,,0.00,WUHU21623XXSP,2013-08-06 13:26:00,
2013-08-06 09:28:00,71.8,57.6,30.06,NNE,22,0.0,0.0,61,0.00,,,0.00,WUHU21623XXSP,2013-08-06 13:28:00,
2013-08-06 09:30:00,71.8,58.0,30.07,NNE,22,0.0,0.0,62,0.00,,,0.00,WUHU21623XXSP,2013-08-06 13:30:00,
2013-08-06 09:32:00,72.3,59.0,30.07,NNE,22,0.0,0.0,63,0.00,,,0.00,WUHU21623XXSP,2013-08-06 13:32:00,
2013-08-06 09:34:00,73.0,59.2,30.07,NNE,22,7.6,7.6,62,0.00,,,0.00,WUHU21623XXSP,2013-08-06 13:34:00,
2013-08-06 09:36:00,72.5,57.3,30.07,NNE,22,3.1,7.6,59,0.00,,,0.00,WUHU21623XXSP,2013-08-06 13:36:00,
2013-08-06 09:38:00,71.8,57.2,30.07,NNE,22,0.0,7.6,60,0.00,,,0.00,WUHU21623XXSP,2013-08-06 13:38:00,
2013-08-06 09:40:00,72.0,57.3,30.07,NNE,22,0.0,7.6,60,0.00,,,0.00,WUHU21623XXSP,2013-08-06 13:40:00,
2013-08-06 09:42:00,72.0,58.2,30.07,NNE,22,1.3,7.6,62,0.00,,,0.00,WUHU21623XXSP,2013-08-06 13:42:00,
2013-08-06 09:45:00,72.0,57.8,30.07,NNE,22,0.0,3.1,61,0.00,,,0.00,WUHU21623XXSP,2013-08-06 13:45:00,
2013-08-06 09:47:00,71.4,56.9,30.07,NNE,22,0.0,1.3,60,0.00,,,0.00,WUHU21623XXSP,2013-08-06 13:47:00,
2013-08-06 09:49:00,71.2,56.7,30.07,NNE,22,0.0,1.3,60,0.00,,,0.00,WUHU21623XXSP,2013-08-06 13:49:00,
2013-08-06 09:51:00,70.9,56.8,30.07,NNE,22,0.0,1.3,61,0.00,,,0.00,WUHU21623XXSP,2013-08-06 13:51:00,
2013-08-06 09:53:00,71.2,58.0,30.07,NNE,22,4.5,4.5,63,0.00,,,0.00,WUHU21623XXSP,2013-08-06 13:53:00,
2013-08-06 09:55:00,71.8,58.0,30.07,NNE,22,0.0,4.5,62,0.00,,,0.00,WUHU21623XXSP,2013-08-06 13:55:00,
2013-08-06 09:57:00,72.3,60.3,30.07,NNE,22,0.0,4.5,66,0.00,,,0.00,WUHU21623XXSP,2013-08-06 13:57:00,
2013-08-06 10:00:00,73.0,58.3,30.07,NNE,22,0.0,4.5,60,0.00,,,0.00,WUHU21623XXSP,2013-08-06 14:00:00,
2013-08-06 10:02:00,73.2,57.0,30.07,North,0,0.0,4.5,57,0.00,,,0.00,WUHU21623XXSP,2013-08-06 14:02:00,
2013-08-06 10:04:00,73.6,56.8,30.07,NNE,22,0.0,0.0,56,0.00,,,0.00,WUHU21623XXSP,2013-08-06 14:04:00,
2013-08-06 10:06:00,73.6,56.3,30.07,North,0,0.0,0.0,55,0.00,,,0.00,WUHU21623XXSP,2013-08-06 14:06:00,
2013-08-06 10:08:00,73.9,58.2,30.07,NNE,22,0.0,0.0,58,0.00,,,0.00,WUHU21623XXSP,2013-08-06 14:08:00,
2013-08-06 10:10:00,74.5,57.7,30.07,NNE,22,0.0,0.0,56,0.00,,,0.00,WUHU21623XXSP,2013-08-06 14:10:00,
2013-08-06 10:12:00,74.3,56.5,30.07,NNE,22,0.0,0.0,54,0.00,,,0.00,WUHU21623XXSP,2013-08-06 14:12:00,
2013-08-06 10:15:00,74.3,58.5,30.07,NNE,22,0.0,0.0,58,0.00,,,0.00,WUHU21623XXSP,2013-08-06 14:15:00,
2013-08-06 10:17:00,74.8,58.1,30.07,NNE,22,0.0,0.0,56,0.00,,,0.00,WUHU21623XXSP,2013-08-06 14:17:00,
2013-08-06 10:19:00,75.0,57.7,30.07,NNE,22,0.0,0.0,55,0.00,,,0.00,WUHU21623XXSP,2013-08-06 14:19:00,
2013-08-06 10:21:00,74.3,54.5,30.07,NNE,22,0.0,0.0,50,0.00,,,0.00,WUHU21623XXSP,2013-08-06 14:21:00,
2013-08-06 10:23:00,73.8,56.0,30.07,NNE,22,0.0,0.0,54,0.00,,,0.00,WUHU21623XXSP,2013-08-06 14:23:00,
2013-08-06 10:25:00,73.8,56.5,30.07,NNE,22,1.6,1.6,55,0.00,,,0.00,WUHU21623XXSP,2013-08-06 14:25:00,
2013-08-06 10:27:00,73.6,55.3,30.07,NNE,22,1.1,1.6,53,0.00,,,0.00,WUHU21623XXSP,2013-08-06 14:27:00,
2013-08-06 10:30:00,73.0,53.3,30.07,NNE,22,0.0,1.6,50,0.00,,,0.00,WUHU21623XXSP,2013-08-06 14:30:00,
2013-08-06 10:32:00,72.7,54.0,30.07,NNE,22,0.0,1.6,52,0.00,,,0.00,WUHU21623XXSP,2013-08-06 14:32:00,
2013-08-06 10:34:00,73.0,55.8,30.07,NNE,22,0.0,1.6,55,0.00,,,0.00,WUHU21623XXSP,2013-08-06 14:34:00,
2013-08-06 10:36:00,73.2,56.0,30.06,NNE,22,0.0,1.1,55,0.00,,,0.00,WUHU21623XXSP,2013-08-06 14:36:00,
2013-08-06 10:38:00,72.9,55.6,30.06,NNE,22,0.0,0.0,55,0.00,,,0.00,WUHU21623XXSP,2013-08-06 14:38:00,
2013-08-06 10:40:00,72.5,55.8,30.06,NNE,22,0.0,0.0,56,0.00,,,0.00,WUHU21623XXSP,2013-08-06 14:40:00,
2013-08-06 10:42:00,72.7,56.5,30.06,NNE,22,0.0,0.0,57,0.00,,,0.00,WUHU21623XXSP,2013-08-06 14:42:00,
2013-08-06 10:44:00,73.2,55.5,30.06,North,0,0.0,0.0,54,0.00,,,0.00,WUHU21623XXSP,2013-08-06 14:44:00,
2013-08-06 10:47:00,73.8,56.0,30.06,NNE,22,0.0,0.0,54,0.00,,,0.00,WUHU21623XXSP,2013-08-06 14:47:00,
2013-08-06 10:49:00,73.9,56.2,30.06,NNE,22,0.0,0.0,54,0.00,,,0.00,WUHU21623XXSP,2013-08-06 14:49:00,
2013-08-06 10:51:00,73.9,55.7,30.06,NNE,22,0.0,0.0,53,0.00,,,0.00,WUHU21623XXSP,2013-08-06 14:51:00,
2013-08-06 10:53:00,74.1,56.3,30.06,NNE,22,0.0,0.0,54,0.00,,,0.00,WUHU21623XXSP,2013-08-06 14:53:00,
2013-08-06 10:55:00,74.1,56.3,30.06,North,0,0.0,0.0,54,0.00,,,0.00,WUHU21623XXSP,2013-08-06 14:55:00,
2013-08-06 10:57:00,74.8,58.1,30.06,North,0,0.0,0.0,56,0.00,,,0.00,WUHU21623XXSP,2013-08-06 14:57:00,
2013-08-06 10:59:00,75.0,56.7,30.06,NNE,22,0.7,0.7,53,0.00,,,0.00,WUHU21623XXSP,2013-08-06 14:59:00,
2013-08-06 11:02:00,75.6,58.2,30.06,NNE,22,0.0,0.7,55,0.00,,,0.00,WUHU21623XXSP,2013-08-06 15:02:00,
2013-08-06 11:04:00,76.1,58.2,30.06,North,0,4.0,4.0,54,0.00,,,0.00,WUHU21623XXSP,2013-08-06 15:04:00,
2013-08-06 11:06:00,76.1,57.2,30.06,North,0,0.0,4.0,52,0.00,,,0.00,WUHU21623XXSP,2013-08-06 15:06:00,
2013-08-06 11:08:00,75.9,57.6,30.06,NNE,22,0.0,4.0,53,0.00,,,0.00,WUHU21623XXSP,2013-08-06 15:08:00,
2013-08-06 11:10:00,75.7,55.9,30.07,NNE,22,7.2,7.2,50,0.00,,,0.00,WUHU21623XXSP,2013-08-06 15:10:00,
2013-08-06 11:12:00,74.8,57.1,30.07,NNE,22,0.0,7.2,54,0.00,,,0.00,WUHU21623XXSP,2013-08-06 15:12:00,
2013-08-06 11:14:00,74.3,56.5,30.06,NNE,22,0.0,7.2,54,0.00,,,0.00,WUHU21623XXSP,2013-08-06 15:14:00,
2013-08-06 11:17:00,74.1,55.8,30.06,NNE,22,0.0,7.2,53,0.00,,,0.00,WUHU21623XXSP,2013-08-06 15:17:00,
2013-08-06 11:19:00,73.9,56.2,30.06,NNE,22,0.0,7.2,54,0.00,,,0.00,WUHU21623XXSP,2013-08-06 15:19:00,
2013-08-06 11:21:00,73.8,56.5,30.06,NNE,22,0.0,0.0,55,0.00,,,0.00,WUHU21623XXSP,2013-08-06 15:21:00,
2013-08-06 11:23:00,73.6,56.3,30.06,NNE,22,0.0,0.0,55,0.00,,,0.00,WUHU21623XXSP,2013-08-06 15:23:00,
2013-08-06 11:25:00,73.8,56.5,30.06,NNE,22,0.0,0.0,55,0.00,,,0.00,WUHU21623XXSP,2013-08-06 15:25:00,
2013-08-06 11:27:00,73.9,56.2,30.06,NNE,22,0.0,0.0,54,0.00,,,0.00,WUHU21623XXSP,2013-08-06 15:27:00,
2013-08-06 11:29:00,74.1,57.3,30.06,NNE,22,0.0,0.0,56,0.00,,,0.00,WUHU21623XXSP,2013-08-06 15:29:00,
2013-08-06 11:32:00,74.1,56.8,30.06,NNE,22,0.0,0.0,55,0.00,,,0.00,WUHU21623XXSP,2013-08-06 15:32:00,
2013-08-06 11:34:00,74.3,57.0,30.06,NNE,22,0.0,0.0,55,0.00,,,0.00,WUHU21623XXSP,2013-08-06 15:34:00,
2013-08-06 11:36:00,74.8,57.6,30.05,NNE,22,0.0,0.0,55,0.00,,,0.00,WUHU21623XXSP,2013-08-06 15:36:00,
2013-08-06 11:38:00,75.0,57.2,30.05,NNE,22,0.0,0.0,54,0.00,,,0.00,WUHU21623XXSP,2013-08-06 15:38:00,
2013-08-06 11:40:00,74.7,55.4,30.05,NNE,22,0.0,0.0,51,0.00,,,0.00,WUHU21623XXSP,2013-08-06 15:40:00,
2013-08-06 11:42:00,74.8,56.0,30.05,NNE,22,0.0,0.0,52,0.00,,,0.00,WUHU21623XXSP,2013-08-06 15:42:00,
2013-08-06 11:44:00,74.5,56.7,30.05,NNE,22,0.0,0.0,54,0.00,,,0.00,WUHU21623XXSP,2013-08-06 15:44:00,
2013-08-06 11:46:00,74.8,57.1,30.05,NNE,22,0.0,0.0,54,0.00,,,0.00,WUHU21623XXSP,2013-08-06 15:46:00,
2013-08-06 11:49:00,75.0,56.2,30.05,NNE,22,0.0,0.0,52,0.00,,,0.00,WUHU21623XXSP,2013-08-06 15:49:00,
2013-08-06 11:51:00,75.0,56.2,30.05,NNE,22,0.0,0.0,52,0.00,,,0.00,WUHU21623XXSP,2013-08-06 15:51:00,
2013-08-06 11:53:00,74.8,56.0,30.05,NNE,22,0.0,0.0,52,0.00,,,0.00,WUHU21623XXSP,2013-08-06 15:53:00,
2013-08-06 11:55:00,74.5,55.7,30.05,NNE,22,0.0,0.0,52,0.00,,,0.00,WUHU21623XXSP,2013-08-06 15:55:00,
2013-08-06 11:57:00,74.8,57.1,30.05,NNE,22,0.0,0.0,54,0.00,,,0.00,WUHU21623XXSP,2013-08-06 15:57:00,
2013-08-06 11:59:00,74.8,58.1,30.05,NNE,22,0.0,0.0,56,0.00,,,0.00,WUHU21623XXSP,2013-08-06 15:59:00,
2013-08-06 12:01:00,75.0,57.7,30.05,NNE,22,0.0,0.0,55,0.00,,,0.00,WUHU21623XXSP,2013-08-06 16:01:00,
2013-08-06 12:04:00,75.4,59.1,30.05,East,90,0.0,0.0,57,0.00,,,0.00,WUHU21623XXSP,2013-08-06 16:04:00,
2013-08-06 12:06:00,75.9,57.6,30.05,NNE,22,0.4,0.4,53,0.00,,,0.00,WUHU21623XXSP,2013-08-06 16:06:00,
2013-08-06 12:08:00,76.1,58.7,30.05,East,90,0.0,0.4,55,0.00,,,0.00,WUHU21623XXSP,2013-08-06 16:08:00,
2013-08-06 12:10:00,76.8,58.9,30.04,North,0,0.0,0.4,54,0.00,,,0.00,WUHU21623XXSP,2013-08-06 16:10:00,
2013-08-06 12:12:00,77.0,59.5,30.05,NNE,22,0.0,0.4,55,0.00,,,0.00,WUHU21623XXSP,2013-08-06 16:12:00,
2013-08-06 12:14:00,76.8,57.9,30.05,East,90,0.4,0.4,52,0.00,,,0.00,WUHU21623XXSP,2013-08-06 16:14:00,
2013-08-06 12:16:00,76.8,59.4,30.05,NNE,22,0.2,0.4,55,0.00,,,0.00,WUHU21623XXSP,2013-08-06 16:16:00,
2013-08-06 12:19:00,76.6,57.7,30.05,NNE,22,2.0,2.0,52,0.00,,,0.00,WUHU21623XXSP,2013-08-06 16:19:00,
2013-08-06 12:21:00,76.6,57.7,30.05,NNE,22,2.0,2.0,52,0.00,,,0.00,WUHU21623XXSP,2013-08-06 16:21:00,
2013-08-06 12:23:00,76.6,57.7,30.05,NNE,22,2.0,2.0,52,0.00,,,0.00,WUHU21623XXSP,2013-08-06 16:23:00,
2013-08-06 12:25:00,75.4,56.6,30.05,NNE,22,7.8,7.8,52,0.00,,,0.00,WUHU21623XXSP,2013-08-06 16:25:00,
2013-08-06 12:27:00,75.4,57.1,30.05,NNE,22,0.0,7.8,53,0.00,,,0.00,WUHU21623XXSP,2013-08-06 16:27:00,
2013-08-06 12:29:00,75.4,57.1,30.05,NNE,22,0.0,7.8,53,0.00,,,0.00,WUHU21623XXSP,2013-08-06 16:29:00,
2013-08-06 12:31:00,75.4,57.6,30.05,NNE,22,3.8,7.8,54,0.00,,,0.00,WUHU21623XXSP,2013-08-06 16:31:00,
2013-08-06 12:34:00,75.0,56.7,30.05,NNE,22,2.5,7.8,53,0.00,,,0.00,WUHU21623XXSP,2013-08-06 16:34:00,
2013-08-06 12:36:00,74.5,56.2,30.05,NNE,22,0.0,3.8,53,0.00,,,0.00,WUHU21623XXSP,2013-08-06 16:36:00,
2013-08-06 12:38:00,73.9,55.7,30.05,NNE,22,0.0,3.8,53,0.00,,,0.00,WUHU21623XXSP,2013-08-06 16:38:00,
2013-08-06 12:40:00,73.9,55.7,30.05,NNE,22,0.0,3.8,53,0.00,,,0.00,WUHU21623XXSP,2013-08-06 16:40:00,
2013-08-06 12:42:00,73.9,55.7,30.05,NNE,22,0.0,2.5,53,0.00,,,0.00,WUHU21623XXSP,2013-08-06 16:42:00,
2013-08-06 12:44:00,74.3,55.0,30.05,WSW,247,0.0,0.0,51,0.00,,,0.00,WUHU21623XXSP,2013-08-06 16:44:00,
2013-08-06 12:46:00,75.0,56.2,30.05,NNE,22,0.0,0.0,52,0.00,,,0.00,WUHU21623XXSP,2013-08-06 16:46:00,
2013-08-06 12:48:00,75.7,57.4,30.05,NNE,22,0.0,0.0,53,0.00,,,0.00,WUHU21623XXSP,2013-08-06 16:48:00,
2013-08-06 12:51:00,76.1,57.7,30.05,NNE,22,0.9,0.9,53,0.00,,,0.00,WUHU21623XXSP,2013-08-06 16:51:00,
2013-08-06 12:53:00,75.9,57.6,30.05,West,270,5.4,5.4,53,0.00,,,0.00,WUHU21623XXSP,2013-08-06 16:53:00,
2013-08-06 12:55:00,76.1,58.2,30.05,WSW,247,0.0,5.4,54,0.00,,,0.00,WUHU21623XXSP,2013-08-06 16:55:00,
2013-08-06 12:57:00,76.3,57.9,30.05,NNE,22,8.3,8.3,53,0.00,,,0.00,WUHU21623XXSP,2013-08-06 16:57:00,
2013-08-06 12:59:00,75.6,55.7,30.05,NNE,22,0.0,8.3,50,0.00,,,0.00,WUHU21623XXSP,2013-08-06 16:59:00,
2013-08-06 13:01:00,75.0,56.2,30.05,WSW,247,0.0,8.3,52,0.00,,,0.00,WUHU21623XXSP,2013-08-06 17:01:00,
2013-08-06 13:03:00,75.2,56.9,30.05,NNE,22,0.0,8.3,53,0.00,,,0.00,WUHU21623XXSP,2013-08-06 17:03:00,
2013-08-06 13:06:00,75.6,57.2,30.04,East,90,0.0,8.3,53,0.00,,,0.00,WUHU21623XXSP,2013-08-06 17:06:00,
2013-08-06 13:08:00,75.9,58.1,30.04,WNW,292,0.4,0.4,54,0.00,,,0.00,WUHU21623XXSP,2013-08-06 17:08:00,
2013-08-06 13:10:00,76.3,57.4,30.04,WSW,247,0.0,0.4,52,0.00,,,0.00,WUHU21623XXSP,2013-08-06 17:10:00,
2013-08-06 13:12:00,75.7,56.4,30.04,NNE,22,1.3,1.3,51,0.00,,,0.00,WUHU21623XXSP,2013-08-06 17:12:00,
2013-08-06 13:14:00,75.2,55.9,30.04,NNE,22,0.0,1.3,51,0.00,,,0.00,WUHU21623XXSP,2013-08-06 17:14:00,
2013-08-06 13:16:00,75.0,55.7,30.04,NNE,22,0.0,1.3,51,0.00,,,0.00,WUHU21623XXSP,2013-08-06 17:16:00,
2013-08-06 13:18:00,75.0,57.2,30.04,NNE,22,0.0,1.3,54,0.00,,,0.00,WUHU21623XXSP,2013-08-06 17:18:00,
2013-08-06 13:20:00,74.5,56.2,30.04,NNE,22,0.0,1.3,53,0.00,,,0.00,WUHU21623XXSP,2013-08-06 17:20:00,
2013-08-06 13:23:00,74.5,55.7,30.03,NNE,22,2.9,2.9,52,0.00,,,0.00,WUHU21623XXSP,2013-08-06 17:23:00,
2013-08-06 13:25:00,74.7,56.4,30.04,WSW,247,0.0,2.9,53,0.00,,,0.00,WUHU21623XXSP,2013-08-06 17:25:00,
2013-08-06 13:27:00,74.3,54.5,30.04,NNE,22,0.0,2.9,50,0.00,,,0.00,WUHU21623XXSP,2013-08-06 17:27:00,
2013-08-06 13:29:00,73.9,54.6,30.04,NNE,22,0.0,2.9,51,0.00,,,0.00,WUHU21623XXSP,2013-08-06 17:29:00,
2013-08-06 13:31:00,73.8,55.0,30.04,NNE,22,0.0,2.9,52,0.00,,,0.00,WUHU21623XXSP,2013-08-06 17:31:00,
2013-08-06 13:33:00,73.6,55.3,30.04,NNE,22,0.0,0.0,53,0.00,,,0.00,WUHU21623XXSP,2013-08-06 17:33:00,
2013-08-06 13:35:00,73.2,54.4,30.04,NNE,22,0.0,0.0,52,0.00,,,0.00,WUHU21623XXSP,2013-08-06 17:35:00,
2013-08-06 13:38:00,73.2,54.4,30.04,NNE,22,0.0,0.0,52,0.00,,,0.00,WUHU21623XXSP,2013-08-06 17:38:00,
2013-08-06 13:40:00,73.0,54.8,30.04,NNE,22,3.4,3.4,53,0.00,,,0.00,WUHU21623XXSP,2013-08-06 17:40:00,
2013-08-06 13:42:00,73.2,55.5,30.04,NNE,22,0.0,3.4,54,0.00,,,0.00,WUHU21623XXSP,2013-08-06 17:42:00,
2013-08-06 13:44:00,73.8,56.5,30.04,NNE,22,0.0,3.4,55,0.00,,,0.00,WUHU21623XXSP,2013-08-06 17:44:00,
2013-08-06 13:46:00,73.9,56.2,30.04,WSW,247,0.0,3.4,54,0.00,,,0.00,WUHU21623XXSP,2013-08-06 17:46:00,
2013-08-06 13:48:00,74.8,56.6,30.04,WSW,247,0.0,3.4,53,0.00,,,0.00,WUHU21623XXSP,2013-08-06 17:48:00,
2013-08-06 13:50:00,75.4,57.6,30.04,NNE,22,0.0,0.0,54,0.00,,,0.00,WUHU21623XXSP,2013-08-06 17:50:00,
2013-08-06 13:53:00,75.9,58.6,30.04,WSW,247,0.0,0.0,55,0.00,,,0.00,WUHU21623XXSP,2013-08-06 17:53:00,
2013-08-06 13:55:00,76.6,58.7,30.04,WSW,247,0.2,0.2,54,0.00,,,0.00,WUHU21623XXSP,2013-08-06 17:55:00,
2013-08-06 13:57:00,76.8,58.4,30.04,WSW,247,0.0,0.2,53,0.00,,,0.00,WUHU21623XXSP,2013-08-06 17:57:00,
2013-08-06 13:59:00,77.5,58.0,30.03,WSW,247,0.0,0.2,51,0.00,,,0.00,WUHU21623XXSP,2013-08-06 17:59:00,
2013-08-06 14:01:00,77.7,58.7,30.03,WSW,247,0.0,0.2,52,0.00,,,0.00,WUHU21623XXSP,2013-08-06 18:01:00,
2013-08-06 14:03:00,77.7,59.2,30.04,WSW,247,0.0,0.2,53,0.00,,,0.00,WUHU21623XXSP,2013-08-06 18:03:00,
2013-08-06 14:05:00,78.1,60.6,30.04,WSW,247,5.1,5.1,55,0.00,,,0.00,WUHU21623XXSP,2013-08-06 18:05:00,
2013-08-06 14:08:00,78.3,58.7,30.04,WSW,247,0.4,5.1,51,0.00,,,0.00,WUHU21623XXSP,2013-08-06 18:08:00,
2013-08-06 14:10:00,77.7,57.7,30.04,SW,225,0.0,5.1,50,0.00,,,0.00,WUHU21623XXSP,2013-08-06 18:10:00,
2013-08-06 14:12:00,77.5,57.5,30.04,NNE,22,0.0,5.1,50,0.00,,,0.00,WUHU21623XXSP,2013-08-06 18:12:00,
2013-08-06 14:14:00,77.0,58.0,30.04,NNE,22,0.0,5.1,52,0.00,,,0.00,WUHU21623XXSP,2013-08-06 18:14:00,
2013-08-06 14:16:00,75.9,56.6,30.04,NNE,22,0.0,0.4,51,0.00,,,0.00,WUHU21623XXSP,2013-08-06 18:16:00,
2013-08-06 14:18:00,75.4,56.6,30.05,NNE,22,0.0,0.0,52,0.00,,,0.00,WUHU21623XXSP,2013-08-06 18:18:00,
2013-08-06 14:20:00,74.8,56.6,30.04,NNE,22,0.0,0.0,53,0.00,,,0.00,WUHU21623XXSP,2013-08-06 18:20:00,
2013-08-06 14:22:00,74.7,55.9,30.05,NNE,22,0.0,0.0,52,0.00,,,0.00,WUHU21623XXSP,2013-08-06 18:22:00,
2013-08-06 14:25:00,74.1,55.3,30.04,NNE,22,0.0,0.0,52,0.00,,,0.00,WUHU21623XXSP,2013-08-06 18:25:00,
2013-08-06 14:27:00,74.1,55.8,30.04,NNE,22,0.0,0.0,53,0.00,,,0.00,WUHU21623XXSP,2013-08-06 18:27:00,
2013-08-06 14:29:00,74.7,57.4,30.05,WSW,247,0.0,0.0,55,0.00,,,0.00,WUHU21623XXSP,2013-08-06 18:29:00,
2013-08-06 14:31:00,75.4,58.6,30.04,WSW,247,0.0,0.0,56,0.00,,,0.00,WUHU21623XXSP,2013-08-06 18:31:00,
2013-08-06 14:33:00,76.1,59.2,30.04,WSW,247,3.6,3.6,56,0.00,,,0.00,WUHU21623XXSP,2013-08-06 18:33:00,
2013-08-06 14:35:00,76.8,59.4,30.04,NW,315,0.0,3.6,55,0.00,,,0.00,WUHU21623XXSP,2013-08-06 18:35:00,
2013-08-06 14:37:00,77.2,58.7,30.04,NNE,22,2.7,3.6,53,0.00,,,0.00,WUHU21623XXSP,2013-08-06 18:37:00,
2013-08-06 14:39:00,76.6,58.2,30.04,NNE,22,0.0,3.6,53,0.00,,,0.00,WUHU21623XXSP,2013-08-06 18:39:00,
2013-08-06 14:42:00,76.1,57.7,30.04,NNE,22,0.0,3.6,53,0.00,,,0.00,WUHU21623XXSP,2013-08-06 18:42:00,
2013-08-06 14:44:00,75.9,58.1,30.04,WSW,247,0.0,2.7,54,0.00,,,0.00,WUHU21623XXSP,2013-08-06 18:44:00,
2013-08-06 14:46:00,76.1,57.7,30.04,WSW,247,3.8,3.8,53,0.00,,,0.00,WUHU21623XXSP,2013-08-06 18:46:00,
2013-08-06 14:48:00,76.1,57.2,30.04,WSW,247,1.1,3.8,52,0.00,,,0.00,WUHU21623XXSP,2013-08-06 18:48:00,
2013-08-06 14:50:00,76.3,57.4,30.04,WSW,247,0.0,3.8,52,0.00,,,0.00,WUHU21623XXSP,2013-08-06 18:50:00,
2013-08-06 14:52:00,76.6,59.2,30.04,WSW,247,0.0,3.8,55,0.00,,,0.00,WUHU21623XXSP,2013-08-06 18:52:00,
2013-08-06 14:54:00,76.3,56.9,30.04,NNE,22,2.5,3.8,51,0.00,,,0.00,WUHU21623XXSP,2013-08-06 18:54:00,
2013-08-06 14:57:00,75.6,56.2,30.04,NNE,22,0.0,2.5,51,0.00,,,0.00,WUHU21623XXSP,2013-08-06 18:57:00,
2013-08-06 14:59:00,74.8,55.5,30.04,NNE,22,0.0,2.5,51,0.00,,,0.00,WUHU21623XXSP,2013-08-06 18:59:00,
2013-08-06 15:01:00,74.8,57.1,30.04,WSW,247,0.0,2.5,54,0.00,,,0.00,WUHU21623XXSP,2013-08-06 19:01:00,
2013-08-06 15:03:00,75.4,57.6,30.03,WSW,247,0.0,2.5,54,0.00,,,0.00,WUHU21623XXSP,2013-08-06 19:03:00,
2013-08-06 15:05:00,75.6,57.2,30.03,NNE,22,0.0,0.0,53,0.00,,,0.00,WUHU21623XXSP,2013-08-06 19:05:00,
2013-08-06 15:07:00,75.6,57.2,30.03,NNE,22,0.0,0.0,53,0.00,,,0.00,WUHU21623XXSP,2013-08-06 19:07:00,
2013-08-06 15:09:00,75.0,56.7,30.04,NNE,22,0.7,0.7,53,0.00,,,0.00,WUHU21623XXSP,2013-08-06 19:09:00,
2013-08-06 15:12:00,74.8,56.6,30.04,NNE,22,0.0,0.7,53,0.00,,,0.00,WUHU21623XXSP,2013-08-06 19:12:00,
2013-08-06 15:14:00,74.8,58.1,30.03,WSW,247,0.0,0.7,56,0.00,,,0.00,WUHU21623XXSP,2013-08-06 19:14:00,
2013-08-06 15:16:00,75.0,57.2,30.04,WSW,247,0.0,0.7,54,0.00,,,0.00,WUHU21623XXSP,2013-08-06 19:16:00,
2013-08-06 15:18:00,75.6,58.2,30.03,WSW,247,4.5,4.5,55,0.00,,,0.00,WUHU21623XXSP,2013-08-06 19:18:00,
2013-08-06 15:20:00,75.7,57.9,30.03,NNE,22,0.0,4.5,54,0.00,,,0.00,WUHU21623XXSP,2013-08-06 19:20:00,
2013-08-06 15:22:00,75.7,58.4,30.03,NNE,22,0.0,4.5,55,0.00,,,0.00,WUHU21623XXSP,2013-08-06 19:22:00,
2013-08-06 15:24:00,75.6,55.7,30.03,WSW,247,0.0,4.5,50,0.00,,,0.00,WUHU21623XXSP,2013-08-06 19:24:00,
2013-08-06 15:27:00,75.4,56.6,30.03,WSW,247,0.0,4.5,52,0.00,,,0.00,WUHU21623XXSP,2013-08-06 19:27:00,
2013-08-06 15:29:00,75.7,57.4,30.03,WSW,247,1.8,1.8,53,0.00,,,0.00,WUHU21623XXSP,2013-08-06 19:29:00,
2013-08-06 15:31:00,76.3,57.9,30.03,WSW,247,0.0,1.8,53,0.00,,,0.00,WUHU21623XXSP,2013-08-06 19:31:00,
2013-08-06 15:33:00,76.6,57.7,30.03,WSW,247,0.0,1.8,52,0.00,,,0.00,WUHU21623XXSP,2013-08-06 19:33:00,
2013-08-06 15:35:00,77.0,57.5,30.03,WSW,247,3.4,3.4,51,0.00,,,0.00,WUHU21623XXSP,2013-08-06 19:35:00,
2013-08-06 15:37:00,77.0,58.0,30.03,WSW,247,0.0,3.4,52,0.00,,,0.00,WUHU21623XXSP,2013-08-06 19:37:00,
2013-08-06 15:39:00,77.2,58.7,30.03,WSW,247,0.0,3.4,53,0.00,,,0.00,WUHU21623XXSP,2013-08-06 19:39:00,
2013-08-06 15:42:00,77.2,58.2,30.03,WSW,247,0.0,3.4,52,0.00,,,0.00,WUHU21623XXSP,2013-08-06 19:42:00,
2013-08-06 15:44:00,77.4,57.8,30.03,WSW,247,0.0,3.4,51,0.00,,,0.00,WUHU21623XXSP,2013-08-06 19:44:00,
2013-08-06 15:46:00,77.5,58.0,30.03,WSW,247,0.7,0.7,51,0.00,,,0.00,WUHU21623XXSP,2013-08-06 19:46:00,
2013-08-06 15:48:00,77.0,57.5,30.03,WSW,247,4.3,4.3,51,0.00,,,0.00,WUHU21623XXSP,2013-08-06 19:48:00,
2013-08-06 15:50:00,76.6,56.7,30.03,NNE,22,0.0,4.3,50,0.00,,,0.00,WUHU21623XXSP,2013-08-06 19:50:00,
2013-08-06 15:52:00,75.7,55.9,30.03,NNE,22,0.0,4.3,50,0.00,,,0.00,WUHU21623XXSP,2013-08-06 19:52:00,
2013-08-06 15:54:00,75.0,55.7,30.03,NNE,22,0.0,4.3,51,0.00,,,0.00,WUHU21623XXSP,2013-08-06 19:54:00,
2013-08-06 15:56:00,75.0,56.7,30.03,NNE,22,0.0,4.3,53,0.00,,,0.00,WUHU21623XXSP,2013-08-06 19:56:00,
2013-08-06 15:59:00,74.5,56.2,30.03,NNE,22,0.0,0.0,53,0.00,,,0.00,WUHU21623XXSP,2013-08-06 19:59:00,
2013-08-06 16:01:00,74.1,56.3,30.03,NNE,22,0.0,0.0,54,0.00,,,0.00,WUHU21623XXSP,2013-08-06 20:01:00,
2013-08-06 16:03:00,73.9,56.2,30.03,NNE,22,0.0,0.0,54,0.00,,,0.00,WUHU21623XXSP,2013-08-06 20:03:00,
2013-08-06 16:05:00,73.8,56.5,30.03,NNE,22,0.0,0.0,55,0.00,,,0.00,WUHU21623XXSP,2013-08-06 20:05:00,
2013-08-06 16:07:00,73.6,56.8,30.03,NNE,22,0.0,0.0,56,0.00,,,0.00,WUHU21623XXSP,2013-08-06 20:07:00,
2013-08-06 16:09:00,73.2,56.0,30.03,NNE,22,0.0,0.0,55,0.00,,,0.00,WUHU21623XXSP,2013-08-06 20:09:00,
2013-08-06 16:11:00,73.4,57.1,30.03,NNE,22,0.0,0.0,57,0.00,,,0.00,WUHU21623XXSP,2013-08-06 20:11:00,
2013-08-06 16:14:00,73.4,57.6,30.03,NNE,22,0.0,0.0,58,0.00,,,0.00,WUHU21623XXSP,2013-08-06 20:14:00,
2013-08-06 16:16:00,73.2,57.0,30.03,NNE,22,0.0,0.0,57,0.00,,,0.00,WUHU21623XXSP,2013-08-06 20:16:00,
2013-08-06 16:18:00,73.2,57.0,30.03,NNE,22,0.0,0.0,57,0.00,,,0.00,WUHU21623XXSP,2013-08-06 20:18:00,
2013-08-06 16:20:00,73.2,57.5,30.03,NNE,22,0.0,0.0,58,0.00,,,0.00,WUHU21623XXSP,2013-08-06 20:20:00,
2013-08-06 16:22:00,73.2,57.5,30.03,NNE,22,0.0,0.0,58,0.00,,,0.00,WUHU21623XXSP,2013-08-06 20:22:00,
2013-08-06 16:24:00,73.2,57.5,30.03,NNE,22,0.0,0.0,58,0.00,,,0.00,WUHU21623XXSP,2013-08-06 20:24:00,
2013-08-06 16:26:00,73.4,57.1,30.03,NNE,22,0.0,0.0,57,0.00,,,0.00,WUHU21623XXSP,2013-08-06 20:26:00,
2013-08-06 16:29:00,73.2,56.0,30.03,NNE,22,0.0,0.0,55,0.00,,,0.00,WUHU21623XXSP,2013-08-06 20:29:00,
2013-08-06 16:31:00,73.4,56.6,30.03,NNE,22,0.0,0.0,56,0.00,,,0.00,WUHU21623XXSP,2013-08-06 20:31:00,
2013-08-06 16:33:00,73.6,56.3,30.03,NNE,22,0.0,0.0,55,0.00,,,0.00,WUHU21623XXSP,2013-08-06 20:33:00,
2013-08-06 16:35:00,73.6,56.8,30.03,NNE,22,4.7,4.7,56,0.00,,,0.00,WUHU21623XXSP,2013-08-06 20:35:00,
2013-08-06 16:37:00,73.4,56.1,30.03,NNE,22,3.4,4.7,55,0.00,,,0.00,WUHU21623XXSP,2013-08-06 20:37:00,
2013-08-06 16:39:00,73.2,55.5,30.03,NNE,22,0.0,4.7,54,0.00,,,0.00,WUHU21623XXSP,2013-08-06 20:39:00,
2013-08-06 16:41:00,73.2,55.5,30.03,NNE,22,0.0,4.7,54,0.00,,,0.00,WUHU21623XXSP,2013-08-06 20:41:00,
2013-08-06 16:44:00,73.2,56.0,30.03,NNE,22,0.0,4.7,55,0.00,,,0.00,WUHU21623XXSP,2013-08-06 20:44:00,
2013-08-06 16:46:00,73.0,55.8,30.03,NNE,22,0.2,3.4,55,0.00,,,0.00,WUHU21623XXSP,2013-08-06 20:46:00,
2013-08-06 16:48:00,73.0,55.8,30.03,NNE,22,0.0,0.2,55,0.00,,,0.00,WUHU21623XXSP,2013-08-06 20:48:00,
2013-08-06 16:50:00,73.0,55.8,30.03,NNE,22,0.0,0.2,55,0.00,,,0.00,WUHU21623XXSP,2013-08-06 20:50:00,
2013-08-06 16:52:00,73.0,55.8,30.03,NNE,22,0.0,0.2,55,0.00,,,0.00,WUHU21623XXSP,2013-08-06 20:52:00,
2013-08-06 16:54:00,73.0,55.8,30.03,NNE,22,0.0,0.2,55,0.00,,,0.00,WUHU21623XXSP,2013-08-06 20:54:00,
2013-08-06 16:56:00,72.7,55.0,30.03,NNE,22,0.0,0.0,54,0.00,,,0.00,WUHU21623XXSP,2013-08-06 20:56:00,
2013-08-06 16:58:00,72.7,55.5,30.03,NNE,22,0.0,0.0,55,0.00,,,0.00,WUHU21623XXSP,2013-08-06 20:58:00,
2013-08-06 17:01:00,72.7,56.0,30.04,NNE,22,0.0,0.0,56,0.00,,,0.00,WUHU21623XXSP,2013-08-06 21:01:00,
2013-08-06 17:03:00,72.7,56.0,30.03,NNE,22,0.0,0.0,56,0.00,,,0.00,WUHU21623XXSP,2013-08-06 21:03:00,
2013-08-06 17:05:00,72.7,56.0,30.03,NNE,22,0.0,0.0,56,0.00,,,0.00,WUHU21623XXSP,2013-08-06 21:05:00,
2013-08-06 17:07:00,72.7,56.0,30.04,NNE,22,0.0,0.0,56,0.00,,,0.00,WUHU21623XXSP,2013-08-06 21:07:00,
2013-08-06 17:09:00,72.7,56.0,30.04,NNE,22,0.0,0.0,56,0.00,,,0.00,WUHU21623XXSP,2013-08-06 21:09:00,
2013-08-06 17:11:00,72.7,56.0,30.04,NNE,22,0.0,0.0,56,0.00,,,0.00,WUHU21623XXSP,2013-08-06 21:11:00,
2013-08-06 17:13:00,72.7,56.0,30.04,NNE,22,0.0,0.0,56,0.00,,,0.00,WUHU21623XXSP,2013-08-06 21:13:00,
2013-08-06 17:16:00,72.7,56.0,30.04,NNE,22,0.0,0.0,56,0.00,,,0.00,WUHU21623XXSP,2013-08-06 21:16:00,
2013-08-06 17:18:00,72.9,56.6,30.04,NNE,22,0.0,0.0,57,0.00,,,0.00,WUHU21623XXSP,2013-08-06 21:18:00,
2013-08-06 17:20:00,72.9,57.1,30.04,NNE,22,0.0,0.0,58,0.00,,,0.00,WUHU21623XXSP,2013-08-06 21:20:00,
2013-08-06 17:22:00,72.7,56.5,30.04,NNE,22,0.0,0.0,57,0.00,,,0.00,WUHU21623XXSP,2013-08-06 21:22:00,
2013-08-06 17:24:00,72.7,56.5,30.04,NNE,22,0.0,0.0,57,0.00,,,0.00,WUHU21623XXSP,2013-08-06 21:24:00,
2013-08-06 17:26:00,72.7,56.5,30.03,NNE,22,0.0,0.0,57,0.00,,,0.00,WUHU21623XXSP,2013-08-06 21:26:00,
2013-08-06 17:28:00,72.7,57.0,30.04,NNE,22,0.0,0.0,58,0.00,,,0.00,WUHU21623XXSP,2013-08-06 21:28:00,
2013-08-06 17:31:00,72.7,57.0,30.03,NNE,22,0.0,0.0,58,0.00,,,0.00,WUHU21623XXSP,2013-08-06 21:31:00,
2013-08-06 17:33:00,72.7,57.5,30.04,North,0,0.0,0.0,59,0.00,,,0.00,WUHU21623XXSP,2013-08-06 21:33:00,
2013-08-06 17:35:00,72.7,58.0,30.04,NNE,22,0.0,0.0,60,0.00,,,0.00,WUHU21623XXSP,2013-08-06 21:35:00,
2013-08-06 17:37:00,72.9,59.0,30.03,NNE,22,0.0,0.0,62,0.00,,,0.00,WUHU21623XXSP,2013-08-06 21:37:00,
2013-08-06 17:39:00,72.7,58.4,30.04,NNE,22,0.0,0.0,61,0.00,,,0.00,WUHU21623XXSP,2013-08-06 21:39:00,
2013-08-06 17:41:00,72.3,58.1,30.04,NNE,22,0.0,0.0,61,0.00,,,0.00,WUHU21623XXSP,2013-08-06 21:41:00,
2013-08-06 17:44:00,72.3,58.1,30.04,WSW,247,0.0,0.0,61,0.00,,,0.00,WUHU21623XXSP,2013-08-06 21:44:00,
2013-08-06 17:46:00,72.1,58.4,30.04,NNE,22,0.0,0.0,62,0.00,,,0.00,WUHU21623XXSP,2013-08-06 21:46:00,
2013-08-06 17:48:00,72.0,57.8,30.04,North,0,0.0,0.0,61,0.00,,,0.00,WUHU21623XXSP,2013-08-06 21:48:00,
2013-08-06 17:50:00,72.0,58.2,30.04,North,0,0.0,0.0,62,0.00,,,0.00,WUHU21623XXSP,2013-08-06 21:50:00,
2013-08-06 17:52:00,72.0,58.2,30.04,North,0,0.0,0.0,62,0.00,,,0.00,WUHU21623XXSP,2013-08-06 21:52:00,
2013-08-06 17:54:00,72.1,58.8,30.04,NNE,22,0.0,0.0,63,0.00,,,0.00,WUHU21623XXSP,2013-08-06 21:54:00,
2013-08-06 17:56:00,72.0,58.6,30.04,NNE,22,0.0,0.0,63,0.00,,,0.00,WUHU21623XXSP,2013-08-06 21:56:00,
2013-08-06 17:58:00,71.8,59.3,30.04,NNE,22,0.0,0.0,65,0.00,,,0.00,WUHU21623XXSP,2013-08-06 21:58:00,
2013-08-06 18:00:00,71.8,58.5,30.04,North,0,0.0,0.0,63,0.00,,,0.00,WUHU21623XXSP,2013-08-06 22:00:00,
2013-08-06 18:03:00,71.4,57.7,30.04,North,0,0.0,0.0,62,0.00,,,0.00,WUHU21623XXSP,2013-08-06 22:03:00,
2013-08-06 18:05:00,71.4,57.3,30.04,NNE,22,0.0,0.0,61,0.00,,,0.00,WUHU21623XXSP,2013-08-06 22:05:00,
2013-08-06 18:07:00,71.4,57.3,30.04,NNE,22,0.0,0.0,61,0.00,,,0.00,WUHU21623XXSP,2013-08-06 22:07:00,
2013-08-06 18:09:00,71.2,57.1,30.04,NNE,22,0.0,0.0,61,0.00,,,0.00,WUHU21623XXSP,2013-08-06 22:09:00,
2013-08-06 18:11:00,70.9,56.8,30.04,NNE,22,0.0,0.0,61,0.00,,,0.00,WUHU21623XXSP,2013-08-06 22:11:00,
2013-08-06 18:13:00,70.7,57.1,30.04,NNE,22,0.0,0.0,62,0.00,,,0.00,WUHU21623XXSP,2013-08-06 22:13:00,
2013-08-06 18:16:00,70.5,57.3,30.04,NNE,22,0.0,0.0,63,0.00,,,0.00,WUHU21623XXSP,2013-08-06 22:16:00,
2013-08-06 18:18:00,70.5,57.3,30.04,NNE,22,0.0,0.0,63,0.00,,,0.00,WUHU21623XXSP,2013-08-06 22:18:00,
2013-08-06 18:20:00,70.3,57.1,30.04,NNE,22,0.0,0.0,63,0.00,,,0.00,WUHU21623XXSP,2013-08-06 22:20:00,
2013-08-06 18:22:00,70.3,57.6,30.04,NNE,22,0.0,0.0,64,0.00,,,0.00,WUHU21623XXSP,2013-08-06 22:22:00,
2013-08-06 18:24:00,70.2,57.8,30.04,NNE,22,0.0,0.0,65,0.00,,,0.00,WUHU21623XXSP,2013-08-06 22:24:00,
2013-08-06 18:26:00,70.2,57.8,30.04,NNE,22,0.0,0.0,65,0.00,,,0.00,WUHU21623XXSP,2013-08-06 22:26:00,
2013-08-06 18:28:00,70.2,57.8,30.04,NNE,22,0.0,0.0,65,0.00,,,0.00,WUHU21623XXSP,2013-08-06 22:28:00,
2013-08-06 18:30:00,70.2,57.8,30.04,NNE,22,0.0,0.0,65,0.00,,,0.00,WUHU21623XXSP,2013-08-06 22:30:00,
2013-08-06 18:33:00,70.2,58.2,30.04,NNE,22,0.0,0.0,66,0.00,,,0.00,WUHU21623XXSP,2013-08-06 22:33:00,
2013-08-06 18:35:00,70.2,57.8,30.04,NNE,22,0.0,0.0,65,0.00,,,0.00,WUHU21623XXSP,2013-08-06 22:35:00,
2013-08-06 18:37:00,70.2,57.8,30.04,NNE,22,0.0,0.0,65,0.00,,,0.00,WUHU21623XXSP,2013-08-06 22:37:00,
2013-08-06 18:39:00,70.2,57.8,30.04,NNE,22,0.0,0.0,65,0.00,,,0.00,WUHU21623XXSP,2013-08-06 22:39:00,
2013-08-06 18:41:00,70.2,57.8,30.04,NNE,22,0.0,0.0,65,0.00,,,0.00,WUHU21623XXSP,2013-08-06 22:41:00,
2013-08-06 18:43:00,70.0,57.6,30.03,NNE,22,0.0,0.0,65,0.00,,,0.00,WUHU21623XXSP,2013-08-06 22:43:00,
2013-08-06 18:45:00,69.8,57.5,30.03,NNE,22,0.0,0.0,65,0.00,,,0.00,WUHU21623XXSP,2013-08-06 22:45:00,
2013-08-06 18:48:00,69.6,57.3,30.04,NNE,22,0.0,0.0,65,0.00,,,0.00,WUHU21623XXSP,2013-08-06 22:48:00,
2013-08-06 18:50:00,69.6,56.5,30.03,NNE,22,0.0,0.0,63,0.00,,,0.00,WUHU21623XXSP,2013-08-06 22:50:00,
2013-08-06 18:52:00,69.4,56.3,30.04,NNE,22,0.0,0.0,63,0.00,,,0.00,WUHU21623XXSP,2013-08-06 22:52:00,
2013-08-06 18:54:00,69.3,56.5,30.03,NNE,22,0.0,0.0,64,0.00,,,0.00,WUHU21623XXSP,2013-08-06 22:54:00,
2013-08-06 18:56:00,69.1,56.4,30.03,NNE,22,0.0,0.0,64,0.00,,,0.00,WUHU21623XXSP,2013-08-06 22:56:00,
2013-08-06 18:58:00,68.7,56.0,30.03,NNE,22,0.0,0.0,64,0.00,,,0.00,WUHU21623XXSP,2013-08-06 22:58:00,
2013-08-06 19:00:00,68.5,55.8,30.03,NNE,22,0.0,0.0,64,0.00,,,0.00,WUHU21623XXSP,2013-08-06 23:00:00,
2013-08-06 19:03:00,68.2,55.5,30.03,NNE,22,0.0,0.0,64,0.00,,,0.00,WUHU21623XXSP,2013-08-06 23:03:00,
2013-08-06 19:05:00,67.8,55.6,30.03,NNE,22,0.0,0.0,65,0.00,,,0.00,WUHU21623XXSP,2013-08-06 23:05:00,
2013-08-06 19:07:00,67.3,55.5,30.03,NNE,22,0.0,0.0,66,0.00,,,0.00,WUHU21623XXSP,2013-08-06 23:07:00,
2013-08-06 19:09:00,66.9,55.1,30.04,NNE,22,0.0,0.0,66,0.00,,,0.00,WUHU21623XXSP,2013-08-06 23:09:00,
2013-08-06 19:11:00,66.6,55.2,30.03,NNE,22,0.0,0.0,67,0.00,,,0.00,WUHU21623XXSP,2013-08-06 23:11:00,
2013-08-06 19:13:00,66.0,54.7,30.04,NNE,22,0.0,0.0,67,0.00,,,0.00,WUHU21623XXSP,2013-08-06 23:13:00,
2013-08-06 19:15:00,65.7,54.4,30.04,NNE,22,0.0,0.0,67,0.00,,,0.00,WUHU21623XXSP,2013-08-06 23:15:00,
2013-08-06 19:17:00,65.1,54.3,30.04,NNE,22,0.0,0.0,68,0.00,,,0.00,WUHU21623XXSP,2013-08-06 23:17:00,
2013-08-06 19:20:00,64.8,54.4,30.03,NNE,22,0.0,0.0,69,0.00,,,0.00,WUHU21623XXSP,2013-08-06 23:20:00,
2013-08-06 19:22:00,64.6,54.2,30.04,NNE,22,0.0,0.0,69,0.00,,,0.00,WUHU21623XXSP,2013-08-06 23:22:00,
2013-08-06 19:24:00,64.2,54.3,30.04,NNE,22,0.0,0.0,70,0.00,,,0.00,WUHU21623XXSP,2013-08-06 23:24:00,
2013-08-06 19:26:00,64.0,54.1,30.04,NNE,22,0.0,0.0,70,0.00,,,0.00,WUHU21623XXSP,2013-08-06 23:26:00,
2013-08-06 19:28:00,63.7,54.1,30.04,NNE,22,0.0,0.0,71,0.00,,,0.00,WUHU21623XXSP,2013-08-06 23:28:00,
2013-08-06 19:30:00,63.7,54.1,30.04,NNE,22,0.0,0.0,71,0.00,,,0.00,WUHU21623XXSP,2013-08-06 23:30:00,
2013-08-06 19:33:00,63.7,54.1,30.04,NNE,22,0.0,0.0,71,0.00,,,0.00,WUHU21623XXSP,2013-08-06 23:33:00,
2013-08-06 19:35:00,63.7,54.1,30.04,NNE,22,0.0,0.0,71,0.00,,,0.00,WUHU21623XXSP,2013-08-06 23:35:00,
2013-08-06 19:37:00,63.7,54.1,30.04,NNE,22,0.0,0.0,71,0.00,,,0.00,WUHU21623XXSP,2013-08-06 23:37:00,
2013-08-06 19:39:00,63.7,54.5,30.04,NNE,22,0.0,0.0,72,0.00,,,0.00,WUHU21623XXSP,2013-08-06 23:39:00,
2013-08-06 19:41:00,63.7,54.5,30.04,NNE,22,0.0,0.0,72,0.00,,,0.00,WUHU21623XXSP,2013-08-06 23:41:00,
2013-08-06 19:43:00,63.5,54.3,30.04,NNE,22,0.0,0.0,72,0.00,,,0.00,WUHU21623XXSP,2013-08-06 23:43:00,
2013-08-06 19:45:00,63.3,54.1,30.04,NNE,22,0.0,0.0,72,0.00,,,0.00,WUHU21623XXSP,2013-08-06 23:45:00,
2013-08-06 19:47:00,63.3,54.1,30.04,NNE,22,0.0,0.0,72,0.00,,,0.00,WUHU21623XXSP,2013-08-06 23:47:00,
2013-08-06 19:50:00,63.1,54.0,30.04,NNE,22,0.0,0.0,72,0.00,,,0.00,WUHU21623XXSP,2013-08-06 23:50:00,
2013-08-06 19:52:00,63.1,54.0,30.04,NNE,22,0.0,0.0,72,0.00,,,0.00,WUHU21623XXSP,2013-08-06 23:52:00,
2013-08-06 19:54:00,63.1,54.0,30.04,NNE,22,0.0,0.0,72,0.00,,,0.00,WUHU21623XXSP,2013-08-06 23:54:00,
2013-08-06 19:56:00,63.1,54.3,30.04,NNE,22,0.0,0.0,73,0.00,,,0.00,WUHU21623XXSP,2013-08-06 23:56:00,
2013-08-06 19:58:00,63.1,54.3,30.04,NNE,22,0.0,0.0,73,0.00,,,0.00,WUHU21623XXSP,2013-08-06 23:58:00,
2013-08-06 20:00:00,63.1,54.3,30.04,NNE,22,0.0,0.0,73,0.00,,,0.00,WUHU21623XXSP,2013-08-07 00:00:00,
2013-08-06 20:02:00,63.1,54.3,30.04,NNE,22,0.0,0.0,73,0.00,,,0.00,WUHU21623XXSP,2013-08-07 00:02:00,
2013-08-06 20:05:00,63.3,54.5,30.05,NNE,22,0.0,0.0,73,0.00,,,0.00,WUHU21623XXSP,2013-08-07 00:05:00,
2013-08-06 20:07:00,63.5,54.7,30.05,NNE,22,0.0,0.0,73,0.00,,,0.00,WUHU21623XXSP,2013-08-07 00:07:00,
2013-08-06 20:09:00,63.5,54.7,30.05,NNE,22,0.0,0.0,73,0.00,,,0.00,WUHU21623XXSP,2013-08-07 00:09:00,
2013-08-06 20:11:00,63.5,54.3,30.05,NNE,22,0.0,0.0,72,0.00,,,0.00,WUHU21623XXSP,2013-08-07 00:11:00,
2013-08-06 20:13:00,63.7,54.9,30.05,NNE,22,0.0,0.0,73,0.00,,,0.00,WUHU21623XXSP,2013-08-07 00:13:00,
2013-08-06 20:15:00,63.7,54.9,30.05,NNE,22,0.0,0.0,73,0.00,,,0.00,WUHU21623XXSP,2013-08-07 00:15:00,
2013-08-06 20:17:00,63.7,54.9,30.04,NNE,22,0.0,0.0,73,0.00,,,0.00,WUHU21623XXSP,2013-08-07 00:17:00,
2013-08-06 20:20:00,63.7,54.9,30.05,NNE,22,0.0,0.0,73,0.00,,,0.00,WUHU21623XXSP,2013-08-07 00:20:00,
2013-08-06 20:22:00,63.9,55.0,30.04,NNE,22,0.0,0.0,73,0.00,,,0.00,WUHU21623XXSP,2013-08-07 00:22:00,
2013-08-06 20:24:00,64.0,54.9,30.05,NNE,22,0.0,0.0,72,0.00,,,0.00,WUHU21623XXSP,2013-08-07 00:24:00,
2013-08-06 20:26:00,64.2,55.0,30.04,NNE,22,0.0,0.0,72,0.00,,,0.00,WUHU21623XXSP,2013-08-07 00:26:00,
2013-08-06 20:28:00,64.2,55.0,30.04,NNE,22,0.0,0.0,72,0.00,,,0.00,WUHU21623XXSP,2013-08-07 00:28:00,
2013-08-06 20:30:00,64.2,55.0,30.04,NNE,22,0.0,0.0,72,0.00,,,0.00,WUHU21623XXSP,2013-08-07 00:30:00,
2013-08-06 20:32:00,64.4,55.2,30.04,NNE,22,0.0,0.0,72,0.00,,,0.00,WUHU21623XXSP,2013-08-07 00:32:00,
2013-08-06 20:35:00,64.6,55.4,30.04,NNE,22,0.0,0.0,72,0.00,,,0.00,WUHU21623XXSP,2013-08-07 00:35:00,
2013-08-06 20:37:00,64.6,55.0,30.04,NNE,22,0.0,0.0,71,0.00,,,0.00,WUHU21623XXSP,2013-08-07 00:37:00,
2013-08-06 20:39:00,64.6,55.0,30.04,NNE,22,0.0,0.0,71,0.00,,,0.00,WUHU21623XXSP,2013-08-07 00:39:00,
2013-08-06 20:41:00,64.6,55.0,30.04,NNE,22,0.0,0.0,71,0.00,,,0.00,WUHU21623XXSP,2013-08-07 00:41:00,
2013-08-06 20:43:00,64.6,55.0,30.04,NNE,22,0.0,0.0,71,0.00,,,0.00,WUHU21623XXSP,2013-08-07 00:43:00,
2013-08-06 20:45:00,64.6,55.0,30.04,NNE,22,0.0,0.0,71,0.00,,,0.00,WUHU21623XXSP,2013-08-07 00:45:00,
2013-08-06 20:47:00,64.6,54.7,30.04,NNE,22,0.0,0.0,70,0.00,,,0.00,WUHU21623XXSP,2013-08-07 00:47:00,
2013-08-06 20:49:00,64.2,54.7,30.04,NNE,22,0.0,0.0,71,0.00,,,0.00,WUHU21623XXSP,2013-08-07 00:49:00,
2013-08-06 20:52:00,64.2,54.7,30.04,NNE,22,0.0,0.0,71,0.00,,,0.00,WUHU21623XXSP,2013-08-07 00:52:00,
2013-08-06 20:54:00,64.0,54.5,30.04,NNE,22,0.0,0.0,71,0.00,,,0.00,WUHU21623XXSP,2013-08-07 00:54:00,
2013-08-06 20:56:00,64.0,54.5,30.04,NNE,22,0.0,0.0,71,0.00,,,0.00,WUHU21623XXSP,2013-08-07 00:56:00,
2013-08-06 20:58:00,64.2,54.7,30.04,NNE,22,0.0,0.0,71,0.00,,,0.00,WUHU21623XXSP,2013-08-07 00:58:00,
2013-08-06 21:00:00,64.4,54.5,30.03,NNE,22,0.0,0.0,70,0.00,,,0.00,WUHU21623XXSP,2013-08-07 01:00:00,
2013-08-06 21:02:00,64.6,54.7,30.03,NNE,22,0.0,0.0,70,0.00,,,0.00,WUHU21623XXSP,2013-08-07 01:02:00,
2013-08-06 21:04:00,64.6,54.7,30.03,NNE,22,0.0,0.0,70,0.00,,,0.00,WUHU21623XXSP,2013-08-07 01:04:00,
2013-08-06 21:07:00,64.6,54.7,30.03,NNE,22,0.0,0.0,70,0.00,,,0.00,WUHU21623XXSP,2013-08-07 01:07:00,
2013-08-06 21:09:00,64.6,54.7,30.03,NNE,22,0.0,0.0,70,0.00,,,0.00,WUHU21623XXSP,2013-08-07 01:09:00,
2013-08-06 21:11:00,64.6,54.7,30.03,NNE,22,0.0,0.0,70,0.00,,,0.00,WUHU21623XXSP,2013-08-07 01:11:00,
2013-08-06 21:13:00,64.8,54.8,30.03,NNE,22,0.0,0.0,70,0.00,,,0.00,WUHU21623XXSP,2013-08-07 01:13:00,
2013-08-06 21:15:00,64.8,54.8,30.03,NNE,22,0.0,0.0,70,0.00,,,0.00,WUHU21623XXSP,2013-08-07 01:15:00,
2013-08-06 21:17:00,64.6,54.7,30.04,NNE,22,0.0,0.0,70,0.00,,,0.00,WUHU21623XXSP,2013-08-07 01:17:00,
2013-08-06 21:20:00,64.6,54.7,30.04,NNE,22,0.0,0.0,70,0.00,,,0.00,WUHU21623XXSP,2013-08-07 01:20:00,
2013-08-06 21:22:00,64.4,54.5,30.04,NNE,22,0.0,0.0,70,0.00,,,0.00,WUHU21623XXSP,2013-08-07 01:22:00,
2013-08-06 21:24:00,64.2,54.3,30.04,NNE,22,0.0,0.0,70,0.00,,,0.00,WUHU21623XXSP,2013-08-07 01:24:00,
2013-08-06 21:26:00,64.2,54.3,30.04,NNE,22,0.0,0.0,70,0.00,,,0.00,WUHU21623XXSP,2013-08-07 01:26:00,
2013-08-06 21:28:00,64.2,54.3,30.04,NNE,22,0.0,0.0,70,0.00,,,0.00,WUHU21623XXSP,2013-08-07 01:28:00,
2013-08-06 21:30:00,64.0,54.1,30.04,NNE,22,0.0,0.0,70,0.00,,,0.00,WUHU21623XXSP,2013-08-07 01:30:00,
2013-08-06 21:32:00,64.0,54.1,30.04,NNE,22,0.0,0.0,70,0.00,,,0.00,WUHU21623XXSP,2013-08-07 01:32:00,
2013-08-06 21:34:00,64.0,54.1,30.04,NNE,22,0.0,0.0,70,0.00,,,0.00,WUHU21623XXSP,2013-08-07 01:34:00,
2013-08-06 21:37:00,64.0,54.1,30.04,NNE,22,0.0,0.0,70,0.00,,,0.00,WUHU21623XXSP,2013-08-07 01:37:00,
2013-08-06 21:39:00,64.2,54.3,30.04,NNE,22,0.0,0.0,70,0.00,,,0.00,WUHU21623XXSP,2013-08-07 01:39:00,
2013-08-06 21:41:00,64.6,54.7,30.04,NNE,22,0.0,0.0,70,0.00,,,0.00,WUHU21623XXSP,2013-08-07 01:41:00,
2013-08-06 21:43:00,64.9,54.6,30.04,NNE,22,0.0,0.0,69,0.00,,,0.00,WUHU21623XXSP,2013-08-07 01:43:00,
2013-08-06 21:45:00,65.1,54.7,30.04,NNE,22,0.0,0.0,69,0.00,,,0.00,WUHU21623XXSP,2013-08-07 01:45:00,
2013-08-06 21:47:00,65.1,54.7,30.04,NNE,22,0.0,0.0,69,0.00,,,0.00,WUHU21623XXSP,2013-08-07 01:47:00,
2013-08-06 21:49:00,65.1,54.7,30.05,NNE,22,6.7,6.7,69,0.00,,,0.00,WUHU21623XXSP,2013-08-07 01:49:00,
2013-08-06 21:52:00,65.7,54.8,30.04,NNE,22,0.0,6.7,68,0.00,,,0.00,WUHU21623XXSP,2013-08-07 01:52:00,
2013-08-06 21:54:00,66.0,54.7,30.04,NNE,22,0.0,6.7,67,0.00,,,0.00,WUHU21623XXSP,2013-08-07 01:54:00,
2013-08-06 21:56:00,66.0,54.7,30.04,NNE,22,0.0,6.7,67,0.00,,,0.00,WUHU21623XXSP,2013-08-07 01:56:00,
2013-08-06 21:58:00,66.0,54.7,30.04,NNE,22,0.0,6.7,67,0.00,,,0.00,WUHU21623XXSP,2013-08-07 01:58:00,
2013-08-06 22:00:00,65.8,54.5,30.04,NNE,22,0.0,0.0,67,0.00,,,0.00,WUHU21623XXSP,2013-08-07 02:00:00,
2013-08-06 22:02:00,65.5,54.6,30.04,NNE,22,0.0,0.0,68,0.00,,,0.00,WUHU21623XXSP,2013-08-07 02:02:00,
2013-08-06 22:04:00,65.1,54.3,30.04,NNE,22,0.0,0.0,68,0.00,,,0.00,WUHU21623XXSP,2013-08-07 02:04:00,
2013-08-06 22:07:00,65.1,54.7,30.04,NNE,22,0.0,0.0,69,0.00,,,0.00,WUHU21623XXSP,2013-08-07 02:07:00,
2013-08-06 22:09:00,64.9,54.6,30.04,NNE,22,0.0,0.0,69,0.00,,,0.00,WUHU21623XXSP,2013-08-07 02:09:00,
2013-08-06 22:11:00,64.8,54.4,30.04,NNE,22,0.0,0.0,69,0.00,,,0.00,WUHU21623XXSP,2013-08-07 02:11:00,
2013-08-06 22:13:00,64.6,54.7,30.04,NNE,22,0.0,0.0,70,0.00,,,0.00,WUHU21623XXSP,2013-08-07 02:13:00,
2013-08-06 22:15:00,64.6,54.7,30.04,NNE,22,0.7,0.7,70,0.00,,,0.00,WUHU21623XXSP,2013-08-07 02:15:00,
2013-08-06 22:17:00,64.6,54.7,30.04,NNE,22,0.0,0.7,70,0.00,,,0.00,WUHU21623XXSP,2013-08-07 02:17:00,
2013-08-06 22:19:00,64.8,54.4,30.04,NNE,22,0.0,0.7,69,0.00,,,0.00,WUHU21623XXSP,2013-08-07 02:19:00,
2013-08-06 22:22:00,64.6,54.7,30.04,NNE,22,0.0,0.7,70,0.00,,,0.00,WUHU21623XXSP,2013-08-07 02:22:00,
2013-08-06 22:24:00,64.4,54.5,30.04,NNE,22,0.0,0.7,70,0.00,,,0.00,WUHU21623XXSP,2013-08-07 02:24:00,
2013-08-06 22:26:00,64.2,54.3,30.04,NNE,22,0.0,0.0,70,0.00,,,0.00,WUHU21623XXSP,2013-08-07 02:26:00,
2013-08-06 22:28:00,64.2,54.3,30.04,NNE,22,0.0,0.0,70,0.00,,,0.00,WUHU21623XXSP,2013-08-07 02:28:00,
2013-08-06 22:30:00,64.2,54.3,30.04,NNE,22,0.0,0.0,70,0.00,,,0.00,WUHU21623XXSP,2013-08-07 02:30:00,
2013-08-06 22:32:00,64.6,54.7,30.04,NNE,22,0.0,0.0,70,0.00,,,0.00,WUHU21623XXSP,2013-08-07 02:32:00,
2013-08-06 22:34:00,64.8,54.8,30.04,NNE,22,0.0,0.0,70,0.00,,,0.00,WUHU21623XXSP,2013-08-07 02:34:00,
2013-08-06 22:36:00,64.9,55.0,30.04,NNE,22,0.0,0.0,70,0.00,,,0.00,WUHU21623XXSP,2013-08-07 02:36:00,
2013-08-06 22:39:00,65.1,55.1,30.04,NNE,22,0.0,0.0,70,0.00,,,0.00,WUHU21623XXSP,2013-08-07 02:39:00,
2013-08-06 22:41:00,65.3,54.9,30.04,NNE,22,0.0,0.0,69,0.00,,,0.00,WUHU21623XXSP,2013-08-07 02:41:00,
2013-08-06 22:43:00,65.7,55.2,30.05,NNE,22,0.0,0.0,69,0.00,,,0.00,WUHU21623XXSP,2013-08-07 02:43:00,
2013-08-06 22:45:00,65.7,55.2,30.05,NNE,22,0.0,0.0,69,0.00,,,0.00,WUHU21623XXSP,2013-08-07 02:45:00,
2013-08-06 22:47:00,65.8,55.4,30.05,NNE,22,0.0,0.0,69,0.00,,,0.00,WUHU21623XXSP,2013-08-07 02:47:00,
2013-08-06 22:49:00,65.7,55.2,30.05,NNE,22,0.0,0.0,69,0.00,,,0.00,WUHU21623XXSP,2013-08-07 02:49:00,
2013-08-06 22:51:00,65.8,55.0,30.04,NNE,22,0.0,0.0,68,0.00,,,0.00,WUHU21623XXSP,2013-08-07 02:51:00,
2013-08-06 22:54:00,66.0,55.1,30.05,NNE,22,0.0,0.0,68,0.00,,,0.00,WUHU21623XXSP,2013-08-07 02:54:00,
2013-08-06 22:56:00,65.8,55.0,30.05,NNE,22,0.0,0.0,68,0.00,,,0.00,WUHU21623XXSP,2013-08-07 02:56:00,
2013-08-06 22:58:00,65.8,55.0,30.05,NNE,22,0.0,0.0,68,0.00,,,0.00,WUHU21623XXSP,2013-08-07 02:58:00,
2013-08-06 23:00:00,66.0,55.1,30.05,NNE,22,0.0,0.0,68,0.00,,,0.00,WUHU21623XXSP,2013-08-07 03:00:00,
2013-08-06 23:02:00,66.0,55.1,30.04,NNE,22,0.0,0.0,68,0.00,,,0.00,WUHU21623XXSP,2013-08-07 03:02:00,
2013-08-06 23:04:00,65.8,55.0,30.05,NNE,22,0.0,0.0,68,0.00,,,0.00,WUHU21623XXSP,2013-08-07 03:04:00,
2013-08-06 23:07:00,65.8,55.0,30.05,NNE,22,0.0,0.0,68,0.00,,,0.00,WUHU21623XXSP,2013-08-07 03:07:00,
2013-08-06 23:09:00,65.8,55.4,30.05,NNE,22,0.0,0.0,69,0.00,,,0.00,WUHU21623XXSP,2013-08-07 03:09:00,
2013-08-06 23:11:00,65.7,55.2,30.05,NNE,22,0.0,0.0,69,0.00,,,0.00,WUHU21623XXSP,2013-08-07 03:11:00,
2013-08-06 23:13:00,65.8,55.4,30.05,NNE,22,0.0,0.0,69,0.00,,,0.00,WUHU21623XXSP,2013-08-07 03:13:00,
2013-08-06 23:15:00,65.7,55.2,30.05,NNE,22,0.0,0.0,69,0.00,,,0.00,WUHU21623XXSP,2013-08-07 03:15:00,
2013-08-06 23:17:00,65.7,55.6,30.05,NNE,22,0.0,0.0,70,0.00,,,0.00,WUHU21623XXSP,2013-08-07 03:17:00,
2013-08-06 23:19:00,65.5,55.0,30.05,NNE,22,0.0,0.0,69,0.00,,,0.00,WUHU21623XXSP,2013-08-07 03:19:00,
2013-08-06 23:21:00,65.7,55.2,30.05,NNE,22,0.0,0.0,69,0.00,,,0.00,WUHU21623XXSP,2013-08-07 03:21:00,
2013-08-06 23:24:00,65.8,55.4,30.04,NNE,22,0.0,0.0,69,0.00,,,0.00,WUHU21623XXSP,2013-08-07 03:24:00,
2013-08-06 23:26:00,65.8,55.4,30.05,NNE,22,0.0,0.0,69,0.00,,,0.00,WUHU21623XXSP,2013-08-07 03:26:00,
2013-08-06 23:28:00,65.8,55.4,30.05,NNE,22,0.0,0.0,69,0.00,,,0.00,WUHU21623XXSP,2013-08-07 03:28:00,
2013-08-06 23:30:00,65.8,55.4,30.05,NNE,22,0.0,0.0,69,0.00,,,0.00,WUHU21623XXSP,2013-08-07 03:30:00,
2013-08-06 23:32:00,65.8,55.8,30.05,NNE,22,0.0,0.0,70,0.00,,,0.00,WUHU21623XXSP,2013-08-07 03:32:00,
2013-08-06 23:34:00,65.8,55.8,30.05,NNE,22,0.0,0.0,70,0.00,,,0.00,WUHU21623XXSP,2013-08-07 03:34:00,
2013-08-06 23:36:00,65.8,55.8,30.04,NNE,22,0.0,0.0,70,0.00,,,0.00,WUHU21623XXSP,2013-08-07 03:36:00,
2013-08-06 23:39:00,65.8,55.8,30.04,NNE,22,0.0,0.0,70,0.00,,,0.00,WUHU21623XXSP,2013-08-07 03:39:00,
2013-08-06 23:41:00,65.8,55.8,30.04,NNE,22,0.0,0.0,70,0.00,,,0.00,WUHU21623XXSP,2013-08-07 03:41:00,
2013-08-06 23:43:00,65.8,55.8,30.04,NNE,22,0.0,0.0,70,0.00,,,0.00,WUHU21623XXSP,2013-08-07 03:43:00,
2013-08-06 23:45:00,65.8,55.8,30.05,NNE,22,0.0,0.0,70,0.00,,,0.00,WUHU21623XXSP,2013-08-07 03:45:00,
2013-08-06 23:47:00,65.7,55.6,30.05,NNE,22,0.0,0.0,70,0.00,,,0.00,WUHU21623XXSP,2013-08-07 03:47:00,
2013-08-06 23:49:00,65.5,55.5,30.05,NNE,22,0.0,0.0,70,0.00,,,0.00,WUHU21623XXSP,2013-08-07 03:49:00,
2013-08-06 23:51:00,65.5,55.8,30.05,NNE,22,0.0,0.0,71,0.00,,,0.00,WUHU21623XXSP,2013-08-07 03:51:00,
2013-08-06 23:55:00,65.5,55.5,30.05,NNE,22,0.0,0.0,70,0.00,,,0.00,WUHU21623XXSP,2013-08-07 03:55:00,
2013-08-06 23:56:00,65.7,55.6,30.05,NNE,22,0.0,0.0,70,0.00,,,0.00,WUHU21623XXSP,2013-08-07 03:56:00,
2013-08-06 23:58:00,65.8,55.8,30.05,NNE,22,0.0,0.0,70,0.00,,,0.00,WUHU21623XXSP,2013-08-07 03:58:00,